Observation data for Guadalupe Mtns Park on 01/17/2018      Previous  Date  Next       Current Mesonet Observations  Soil Data  Daily Summary Page  Observations in Plain Language
KGU1 170600Z 04005KT M08/M21 A3046 RMK A01 T10811206  RH  036%=      5-min Rain = 0
KGU1 170601Z 02004KT M08/M21 A3046 RMK A01 T10801211  RH  035%=      5-min Rain = 0
KGU1 170602Z 02004KT M08/M21 A3046 RMK A01 T10791210  RH  035%=      5-min Rain = 0
KGU1 170603Z 02005KT M08/M21 A3046 RMK A01 T10791210  RH  035%=      5-min Rain = 0
KGU1 170604Z 01005KT M08/M21 A3046 RMK A01 T10791211  RH  035%=      5-min Rain = 0
KGU1 170605Z 01005KT M08/M21 A3046 RMK A01 T10781210  RH  035%=      5-min Rain = 0
KGU1 170606Z 01005KT M08/M21 A3046 RMK A01 T10791209  RH  035%=      5-min Rain = 0
KGU1 170607Z 00005KT M08/M21 A3046 RMK A01 T10791210  RH  035%=      5-min Rain = 0
KGU1 170608Z 01004KT M08/M21 A3046 RMK A01 T10791211  RH  034%=      5-min Rain = 0
KGU1 170609Z 02005KT M08/M21 A3046 RMK A01 T10781211  RH  034%=      5-min Rain = 0
KGU1 170610Z 03004KT M08/M21 A3046 RMK A01 T10771213  RH  034%=      5-min Rain = 0
KGU1 170611Z 04004KT M08/M21 A3046 RMK A01 T10771211  RH  034%=      5-min Rain = 0
KGU1 170612Z 02004KT M08/M21 A3046 RMK A01 T10771209  RH  035%=      5-min Rain = 0
KGU1 170613Z 01005KT M08/M21 A3046 RMK A01 T10771209  RH  035%=      5-min Rain = 0
KGU1 170614Z 02006KT M08/M21 A3046 RMK A01 T10771208  RH  035%=      5-min Rain = 0
KGU1 170615Z 01004KT M08/M21 A3046 RMK A01 T10771211  RH  034%=      5-min Rain = 0
KGU1 170616Z 00003KT M08/M21 A3046 RMK A01 T10751212  RH  034%=      5-min Rain = 0
KGU1 170617Z 01003KT M08/M21 A3046 RMK A01 T10751209  RH  034%=      5-min Rain = 0
KGU1 170618Z 02002KT M08/M21 A3046 RMK A01 T10751211  RH  034%=      5-min Rain = 0
KGU1 170619Z 02002KT M08/M21 A3046 RMK A01 T10751210  RH  034%=      5-min Rain = 0
KGU1 170620Z 36003KT M08/M21 A3046 RMK A01 T10751209  RH  034%=      5-min Rain = 0
KGU1 170621Z 04001KT M08/M21 A3046 RMK A01 T10751209  RH  034%=      5-min Rain = 0
KGU1 170622Z 03000KT M08/M21 A3046 RMK A01 T10751209  RH  034%=      5-min Rain = 0
KGU1 170623Z 03001KT M08/M21 A3046 RMK A01 T10751209  RH  034%=      5-min Rain = 0
KGU1 170624Z 03003KT M08/M21 A3046 RMK A01 T10751207  RH  035%=      5-min Rain = 0
KGU1 170625Z 03004KT M08/M21 A3046 RMK A01 T10751207  RH  035%=      5-min Rain = 0
KGU1 170626Z 03004KT M08/M21 A3046 RMK A01 T10761205  RH  036%=      5-min Rain = 0
KGU1 170627Z 03005KT M08/M20 A3046 RMK A01 T10771203  RH  036%=      5-min Rain = 0
KGU1 170628Z 03005KT M08/M20 A3046 RMK A01 T10781203  RH  037%=      5-min Rain = 0
KGU1 170629Z 04004KT M08/M20 A3046 RMK A01 T10791203  RH  037%=      5-min Rain = 0
KGU1 170630Z 03004KT M08/M20 A3046 RMK A01 T10801202  RH  037%=      5-min Rain = 0
KGU1 170631Z 02003KT M08/M20 A3046 RMK A01 T10811201  RH  038%=      5-min Rain = 0
KGU1 170632Z 02005KT M08/M20 A3045 RMK A01 T10821200  RH  039%=      5-min Rain = 0
KGU1 170633Z 01004KT M08/M21 A3045 RMK A01 T10811206  RH  037%=      5-min Rain = 0
KGU1 170634Z 01004KT M08/M20 A3045 RMK A01 T10801204  RH  037%=      5-min Rain = 0
KGU1 170635Z 02004KT M08/M20 A3045 RMK A01 T10801201  RH  038%=      5-min Rain = 0
KGU1 170636Z 02004KT M08/M20 A3045 RMK A01 T10801201  RH  038%=      5-min Rain = 0
KGU1 170637Z 02003KT M08/M20 A3045 RMK A01 T10811200  RH  039%=      5-min Rain = 0
KGU1 170638Z 02004KT M08/M20 A3045 RMK A01 T10811200  RH  039%=      5-min Rain = 0
KGU1 170639Z 02003KT M08/M20 A3045 RMK A01 T10821200  RH  039%=      5-min Rain = 0
KGU1 170640Z 02004KT M08/M21 A3045 RMK A01 T10811205  RH  037%=      5-min Rain = 0
KGU1 170641Z 03004KT M08/M21 A3045 RMK A01 T10811205  RH  037%=      5-min Rain = 0
KGU1 170642Z 03003KT M08/M20 A3045 RMK A01 T10801203  RH  037%=      5-min Rain = 0
KGU1 170643Z 03002KT M08/M20 A3045 RMK A01 T10811203  RH  037%=      5-min Rain = 0
KGU1 170644Z 04002KT M08/M21 A3045 RMK A01 T10811206  RH  037%=      5-min Rain = 0
KGU1 170645Z 05003KT M08/M21 A3045 RMK A01 T10801208  RH  036%=      5-min Rain = 0
KGU1 170646Z 05003KT M08/M21 A3045 RMK A01 T10801207  RH  036%=      5-min Rain = 0
KGU1 170647Z 04003KT M08/M21 A3045 RMK A01 T10801210  RH  035%=      5-min Rain = 0
KGU1 170648Z 06002KT M08/M21 A3045 RMK A01 T10801207  RH  036%=      5-min Rain = 0
KGU1 170649Z 07002KT M08/M21 A3045 RMK A01 T10801208  RH  036%=      5-min Rain = 0
KGU1 170650Z 07002KT M08/M21 A3045 RMK A01 T10801208  RH  036%=      5-min Rain = 0
KGU1 170651Z 07003KT M08/M20 A3045 RMK A01 T10801204  RH  037%=      5-min Rain = 0
KGU1 170652Z 07002KT M08/M20 A3045 RMK A01 T10801202  RH  038%=      5-min Rain = 0
KGU1 170653Z 07003KT M08/M21 A3045 RMK A01 T10801205  RH  037%=      5-min Rain = 0
KGU1 170654Z 07002KT M08/M21 A3045 RMK A01 T10791208  RH  035%=      5-min Rain = 0
KGU1 170655Z 07002KT M08/M21 A3045 RMK A01 T10781205  RH  036%=      5-min Rain = 0
KGU1 170656Z 07001KT M08/M20 A3045 RMK A01 T10781204  RH  037%=      5-min Rain = 0
KGU1 170657Z 07000KT M08/M20 A3045 RMK A01 T10791204  RH  037%=      5-min Rain = 0
KGU1 170658Z 07002KT M08/M20 A3045 RMK A01 T10791204  RH  037%=      5-min Rain = 0
KGU1 170659Z 07002KT M08/M21 A3045 RMK A01 T10791208  RH  036%=      5-min Rain = 0
KGU1 170700Z 06005KT M08/M21 A3045 RMK A01 T10801205  RH  037%=      5-min Rain = 0
KGU1 170701Z 07004KT M08/M21 A3045 RMK A01 T10811213  RH  034%=      5-min Rain = 0
KGU1 170702Z 07003KT M08/M22 A3045 RMK A01 T10811218  RH  033%=      5-min Rain = 0
KGU1 170703Z 06002KT M08/M22 A3045 RMK A01 T10801221  RH  032%=      5-min Rain = 0
KGU1 170704Z 06000KT M08/M22 A3045 RMK A01 T10801223  RH  031%=      5-min Rain = 0
KGU1 170705Z 04001KT M08/M22 A3045 RMK A01 T10791223  RH  031%=      5-min Rain = 0
KGU1 170706Z 03002KT M08/M22 A3045 RMK A01 T10791217  RH  033%=      5-min Rain = 0
KGU1 170707Z 03002KT M08/M21 A3045 RMK A01 T10791214  RH  034%=      5-min Rain = 0
KGU1 170708Z 05001KT M08/M22 A3045 RMK A01 T10791218  RH  033%=      5-min Rain = 0
KGU1 170709Z 04001KT M08/M22 A3045 RMK A01 T10791220  RH  032%=      5-min Rain = 0
KGU1 170710Z 02001KT M08/M22 A3045 RMK A01 T10781217  RH  033%=      5-min Rain = 0
KGU1 170711Z 00002KT M08/M22 A3044 RMK A01 T10781216  RH  033%=      5-min Rain = 0
KGU1 170712Z 00002KT M08/M21 A3044 RMK A01 T10771212  RH  034%=      5-min Rain = 0
KGU1 170713Z 00003KT M08/M21 A3044 RMK A01 T10771210  RH  034%=      5-min Rain = 0
KGU1 170714Z 03003KT M08/M21 A3044 RMK A01 T10761211  RH  034%=      5-min Rain = 0
KGU1 170715Z 00003KT M08/M21 A3044 RMK A01 T10761209  RH  034%=      5-min Rain = 0
KGU1 170716Z 00003KT M08/M21 A3044 RMK A01 T10761210  RH  034%=      5-min Rain = 0
KGU1 170717Z 01003KT M08/M21 A3044 RMK A01 T10761210  RH  034%=      5-min Rain = 0
KGU1 170718Z 01004KT M08/M21 A3044 RMK A01 T10771208  RH  035%=      5-min Rain = 0
KGU1 170719Z 01005KT M08/M21 A3044 RMK A01 T10781207  RH  036%=      5-min Rain = 0
KGU1 170720Z 00005KT M08/M20 A3044 RMK A01 T10781204  RH  036%=      5-min Rain = 0
KGU1 170721Z 01005KT M08/M21 A3044 RMK A01 T10781205  RH  036%=      5-min Rain = 0
KGU1 170722Z 02004KT M08/M21 A3044 RMK A01 T10771208  RH  035%=      5-min Rain = 0
KGU1 170723Z 02004KT M08/M20 A3044 RMK A01 T10771204  RH  036%=      5-min Rain = 0
KGU1 170724Z 01004KT M08/M20 A3044 RMK A01 T10781202  RH  037%=      5-min Rain = 0
KGU1 170725Z 02004KT M08/M20 A3044 RMK A01 T10791201  RH  038%=      5-min Rain = 0
KGU1 170726Z 02004KT M08/M20 A3044 RMK A01 T10801201  RH  038%=      5-min Rain = 0
KGU1 170727Z 02003KT M08/M20 A3044 RMK A01 T10811203  RH  038%=      5-min Rain = 0
KGU1 170728Z 03003KT M08/M20 A3044 RMK A01 T10811202  RH  038%=      5-min Rain = 0
KGU1 170729Z 04002KT M08/M20 A3044 RMK A01 T10821200  RH  039%=      5-min Rain = 0
KGU1 170730Z 04002KT M08/M20 A3044 RMK A01 T10831200  RH  039%=      5-min Rain = 0
KGU1 170731Z 04003KT M08/M20 A3044 RMK A01 T10831200  RH  039%=      5-min Rain = 0
KGU1 170732Z 04004KT M08/M20 A3044 RMK A01 T10831202  RH  039%=      5-min Rain = 0
KGU1 170733Z 04003KT M08/M20 A3044 RMK A01 T10831200  RH  039%=      5-min Rain = 0
KGU1 170734Z 04003KT M08/M20 A3044 RMK A01 T10841199  RH  040%=      5-min Rain = 0
KGU1 170735Z 04003KT M08/M20 A3044 RMK A01 T10841200  RH  040%=      5-min Rain = 0
KGU1 170736Z 04003KT M09/M20 A3044 RMK A01 T10851202  RH  039%=      5-min Rain = 0
KGU1 170737Z 04003KT M09/M20 A3044 RMK A01 T10851204  RH  038%=      5-min Rain = 0
KGU1 170738Z 04002KT M08/M21 A3044 RMK A01 T10841210  RH  037%=      5-min Rain = 0
KGU1 170739Z 04001KT M08/M21 A3044 RMK A01 T10841210  RH  036%=      5-min Rain = 0
KGU1 170740Z 03002KT M08/M21 A3044 RMK A01 T10831209  RH  036%=      5-min Rain = 0
KGU1 170741Z 03002KT M08/M21 A3044 RMK A01 T10821209  RH  036%=      5-min Rain = 0
KGU1 170742Z 02002KT M08/M21 A3044 RMK A01 T10831207  RH  037%=      5-min Rain = 0
KGU1 170743Z 01003KT M08/M21 A3044 RMK A01 T10831205  RH  038%=      5-min Rain = 0
KGU1 170744Z 01004KT M08/M21 A3044 RMK A01 T10831205  RH  038%=      5-min Rain = 0
KGU1 170745Z 01004KT M08/M21 A3044 RMK A01 T10841206  RH  037%=      5-min Rain = 0
KGU1 170746Z 36003KT M08/M21 A3044 RMK A01 T10821212  RH  035%=      5-min Rain = 0
KGU1 170747Z 00003KT M08/M21 A3044 RMK A01 T10801211  RH  035%=      5-min Rain = 0
KGU1 170748Z 01002KT M08/M21 A3044 RMK A01 T10791213  RH  034%=      5-min Rain = 0
KGU1 170749Z 00003KT M08/M21 A3043 RMK A01 T10791210  RH  035%=      5-min Rain = 0
KGU1 170750Z 00003KT M08/M21 A3044 RMK A01 T10791209  RH  035%=      5-min Rain = 0
KGU1 170751Z 36003KT M08/M21 A3043 RMK A01 T10801205  RH  037%=      5-min Rain = 0
KGU1 170752Z 00003KT M08/M20 A3043 RMK A01 T10811202  RH  038%=      5-min Rain = 0
KGU1 170753Z 00003KT M08/M20 A3043 RMK A01 T10821202  RH  038%=      5-min Rain = 0
KGU1 170754Z 00003KT M08/M20 A3043 RMK A01 T10831202  RH  039%=      5-min Rain = 0
KGU1 170755Z 01003KT M08/M20 A3043 RMK A01 T10841201  RH  039%=      5-min Rain = 0
KGU1 170756Z 01004KT M08/M20 A3043 RMK A01 T10841201  RH  039%=      5-min Rain = 0
KGU1 170757Z 36004KT M08/M20 A3043 RMK A01 T10841203  RH  039%=      5-min Rain = 0
KGU1 170758Z 00003KT M08/M20 A3043 RMK A01 T10841202  RH  039%=      5-min Rain = 0
KGU1 170759Z 01004KT M08/M20 A3043 RMK A01 T10841204  RH  038%=      5-min Rain = 0
KGU1 170800Z 00003KT M08/M21 A3043 RMK A01 T10831205  RH  038%=      5-min Rain = 0
KGU1 170801Z 01004KT M08/M20 A3043 RMK A01 T10831203  RH  038%=      5-min Rain = 0
KGU1 170802Z 01004KT M08/M20 A3043 RMK A01 T10841201  RH  039%=      5-min Rain = 0
KGU1 170803Z 02004KT M08/M20 A3043 RMK A01 T10841202  RH  039%=      5-min Rain = 0
KGU1 170804Z 02003KT M08/M20 A3043 RMK A01 T10841202  RH  039%=      5-min Rain = 0
KGU1 170805Z 02003KT M08/M20 A3043 RMK A01 T10841202  RH  039%=      5-min Rain = 0
KGU1 170806Z 02003KT M09/M20 A3043 RMK A01 T10851202  RH  039%=      5-min Rain = 0
KGU1 170807Z 03003KT M09/M20 A3043 RMK A01 T10851203  RH  039%=      5-min Rain = 0
KGU1 170808Z 03003KT M09/M20 A3043 RMK A01 T10851201  RH  039%=      5-min Rain = 0
KGU1 170809Z 03003KT M09/M20 A3043 RMK A01 T10861202  RH  039%=      5-min Rain = 0
KGU1 170810Z 03003KT M09/M20 A3043 RMK A01 T10861202  RH  040%=      5-min Rain = 0
KGU1 170811Z 03003KT M09/M20 A3043 RMK A01 T10861203  RH  039%=      5-min Rain = 0
KGU1 170812Z 03003KT M09/M20 A3043 RMK A01 T10851203  RH  039%=      5-min Rain = 0
KGU1 170813Z 04004KT M09/M20 A3043 RMK A01 T10851204  RH  039%=      5-min Rain = 0
KGU1 170814Z 03003KT M09/M20 A3043 RMK A01 T10851202  RH  039%=      5-min Rain = 0
KGU1 170815Z 04003KT M09/M20 A3043 RMK A01 T10851201  RH  040%=      5-min Rain = 0
KGU1 170816Z 04003KT M09/M20 A3043 RMK A01 T10851202  RH  039%=      5-min Rain = 0
KGU1 170817Z 04003KT M09/M20 A3043 RMK A01 T10861203  RH  039%=      5-min Rain = 0
KGU1 170818Z 04002KT M09/M20 A3043 RMK A01 T10861204  RH  039%=      5-min Rain = 0
KGU1 170819Z 04002KT M09/M20 A3043 RMK A01 T10861204  RH  039%=      5-min Rain = 0
KGU1 170820Z 04002KT M09/M20 A3043 RMK A01 T10861204  RH  039%=      5-min Rain = 0
KGU1 170821Z 03002KT M09/M20 A3043 RMK A01 T10861203  RH  039%=      5-min Rain = 0
KGU1 170822Z 03002KT M09/M20 A3043 RMK A01 T10861203  RH  039%=      5-min Rain = 0
KGU1 170823Z 02003KT M09/M20 A3044 RMK A01 T10861203  RH  039%=      5-min Rain = 0
KGU1 170824Z 02003KT M09/M21 A3044 RMK A01 T10861207  RH  038%=      5-min Rain = 0
KGU1 170825Z 03003KT M09/M21 A3044 RMK A01 T10861206  RH  038%=      5-min Rain = 0
KGU1 170826Z 04003KT M09/M21 A3044 RMK A01 T10871207  RH  038%=      5-min Rain = 0
KGU1 170827Z 04003KT M09/M21 A3044 RMK A01 T10871209  RH  037%=      5-min Rain = 0
KGU1 170828Z 04003KT M09/M21 A3044 RMK A01 T10871209  RH  037%=      5-min Rain = 0
KGU1 170829Z 04002KT M09/M21 A3044 RMK A01 T10871209  RH  037%=      5-min Rain = 0
KGU1 170830Z 03003KT M09/M21 A3044 RMK A01 T10871209  RH  038%=      5-min Rain = 0
KGU1 170831Z 02003KT M09/M21 A3043 RMK A01 T10871208  RH  038%=      5-min Rain = 0
KGU1 170832Z 01003KT M09/M21 A3043 RMK A01 T10881206  RH  039%=      5-min Rain = 0
KGU1 170833Z 01004KT M09/M21 A3043 RMK A01 T10891206  RH  039%=      5-min Rain = 0
KGU1 170834Z 01003KT M09/M21 A3043 RMK A01 T10891207  RH  039%=      5-min Rain = 0
KGU1 170835Z 01004KT M09/M21 A3043 RMK A01 T10891207  RH  039%=      5-min Rain = 0
KGU1 170836Z 01004KT M09/M21 A3043 RMK A01 T10901207  RH  039%=      5-min Rain = 0
KGU1 170837Z 01003KT M09/M21 A3043 RMK A01 T10901207  RH  039%=      5-min Rain = 0
KGU1 170838Z 01003KT M09/M21 A3043 RMK A01 T10901207  RH  039%=      5-min Rain = 0
KGU1 170839Z 01003KT M09/M21 A3043 RMK A01 T10901210  RH  038%=      5-min Rain = 0
KGU1 170840Z 01003KT M09/M21 A3043 RMK A01 T10901213  RH  037%=      5-min Rain = 0
KGU1 170841Z 01003KT M09/M22 A3043 RMK A01 T10901215  RH  036%=      5-min Rain = 0
KGU1 170842Z 00003KT M09/M22 A3043 RMK A01 T10891215  RH  036%=      5-min Rain = 0
KGU1 170843Z 00003KT M09/M22 A3043 RMK A01 T10891216  RH  036%=      5-min Rain = 0
KGU1 170844Z 01003KT M09/M22 A3043 RMK A01 T10891215  RH  036%=      5-min Rain = 0
KGU1 170845Z 01003KT M09/M22 A3043 RMK A01 T10891215  RH  036%=      5-min Rain = 0
KGU1 170846Z 01003KT M09/M22 A3043 RMK A01 T10891216  RH  036%=      5-min Rain = 0
KGU1 170847Z 01003KT M09/M22 A3043 RMK A01 T10891216  RH  036%=      5-min Rain = 0
KGU1 170848Z 01003KT M09/M21 A3043 RMK A01 T10891211  RH  038%=      5-min Rain = 0
KGU1 170849Z 01003KT M09/M21 A3043 RMK A01 T10901212  RH  037%=      5-min Rain = 0
KGU1 170850Z 01002KT M09/M21 A3043 RMK A01 T10901213  RH  037%=      5-min Rain = 0
KGU1 170851Z 01002KT M09/M21 A3043 RMK A01 T10891214  RH  037%=      5-min Rain = 0
KGU1 170852Z 01002KT M09/M21 A3043 RMK A01 T10891214  RH  037%=      5-min Rain = 0
KGU1 170853Z 00002KT M09/M21 A3043 RMK A01 T10891213  RH  037%=      5-min Rain = 0
KGU1 170854Z 00002KT M09/M21 A3043 RMK A01 T10891212  RH  037%=      5-min Rain = 0
KGU1 170855Z 00002KT M09/M21 A3043 RMK A01 T10891213  RH  037%=      5-min Rain = 0
KGU1 170856Z 36002KT M09/M21 A3043 RMK A01 T10891209  RH  038%=      5-min Rain = 0
KGU1 170857Z 34002KT M09/M20 A3043 RMK A01 T10901203  RH  040%=      5-min Rain = 0
KGU1 170858Z 34003KT M09/M21 A3043 RMK A01 T10901205  RH  040%=      5-min Rain = 0
KGU1 170859Z 35003KT M09/M21 A3043 RMK A01 T10901208  RH  039%=      5-min Rain = 0
KGU1 170900Z 35003KT M09/M21 A3043 RMK A01 T10891206  RH  039%=      5-min Rain = 0
KGU1 170901Z 35003KT M09/M21 A3043 RMK A01 T10891207  RH  039%=      5-min Rain = 0
KGU1 170902Z 35003KT M09/M21 A3043 RMK A01 T10881207  RH  039%=      5-min Rain = 0
KGU1 170903Z 35002KT M09/M20 A3043 RMK A01 T10881204  RH  039%=      5-min Rain = 0
KGU1 170904Z 35002KT M09/M20 A3043 RMK A01 T10871201  RH  040%=      5-min Rain = 0
KGU1 170905Z 35002KT M09/M20 A3043 RMK A01 T10871199  RH  041%=      5-min Rain = 0
KGU1 170906Z 35002KT M09/M20 A3043 RMK A01 T10861202  RH  040%=      5-min Rain = 0
KGU1 170907Z 35002KT M09/M20 A3043 RMK A01 T10861197  RH  041%=      5-min Rain = 0
KGU1 170908Z 35002KT M09/M19 A3043 RMK A01 T10861193  RH  043%=      5-min Rain = 0
KGU1 170909Z 01002KT M09/M19 A3043 RMK A01 T10871194  RH  043%=      5-min Rain = 0
KGU1 170910Z 02003KT M09/M20 A3043 RMK A01 T10871197  RH  041%=      5-min Rain = 0
KGU1 170911Z 01003KT M09/M20 A3043 RMK A01 T10861198  RH  041%=      5-min Rain = 0
KGU1 170912Z 01003KT M09/M20 A3043 RMK A01 T10861197  RH  041%=      5-min Rain = 0
KGU1 170913Z 01003KT M09/M20 A3042 RMK A01 T10861196  RH  041%=      5-min Rain = 0
KGU1 170914Z 01003KT M09/M20 A3042 RMK A01 T10851197  RH  041%=      5-min Rain = 0
KGU1 170915Z 02003KT M09/M20 A3042 RMK A01 T10851196  RH  041%=      5-min Rain = 0
KGU1 170916Z 03003KT M09/M20 A3042 RMK A01 T10861197  RH  041%=      5-min Rain = 0
KGU1 170917Z 03003KT M09/M20 A3042 RMK A01 T10851197  RH  041%=      5-min Rain = 0
KGU1 170918Z 02003KT M09/M20 A3042 RMK A01 T10851197  RH  041%=      5-min Rain = 0
KGU1 170919Z 03004KT M09/M20 A3042 RMK A01 T10851199  RH  040%=      5-min Rain = 0
KGU1 170920Z 03003KT M08/M21 A3042 RMK A01 T10841212  RH  036%=      5-min Rain = 0
KGU1 170921Z 04002KT M08/M21 A3042 RMK A01 T10821208  RH  036%=      5-min Rain = 0
KGU1 170922Z 04002KT M08/M21 A3042 RMK A01 T10811207  RH  036%=      5-min Rain = 0
KGU1 170923Z 06002KT M08/M20 A3042 RMK A01 T10811203  RH  038%=      5-min Rain = 0
KGU1 170924Z 06002KT M08/M21 A3042 RMK A01 T10811210  RH  036%=      5-min Rain = 0
KGU1 170925Z 06002KT M08/M21 A3042 RMK A01 T10801212  RH  035%=      5-min Rain = 0
KGU1 170926Z 06001KT M08/M22 A3042 RMK A01 T10801216  RH  033%=      5-min Rain = 0
KGU1 170927Z 04001KT M08/M21 A3042 RMK A01 T10791211  RH  035%=      5-min Rain = 0
KGU1 170928Z 04002KT M08/M21 A3042 RMK A01 T10801211  RH  035%=      5-min Rain = 0
KGU1 170929Z 04001KT M08/M21 A3042 RMK A01 T10791211  RH  035%=      5-min Rain = 0
KGU1 170930Z 04000KT M08/M21 A3042 RMK A01 T10791213  RH  034%=      5-min Rain = 0
KGU1 170931Z 00000KT M08/M21 A3042 RMK A01 T10791212  RH  034%=      5-min Rain = 0
KGU1 170932Z 00000KT M08/M21 A3042 RMK A01 T10801210  RH  035%=      5-min Rain = 0
KGU1 170933Z 04001KT M08/M21 A3042 RMK A01 T10801213  RH  034%=      5-min Rain = 0
KGU1 170934Z 04001KT M08/M21 A3042 RMK A01 T10801213  RH  034%=      5-min Rain = 0
KGU1 170935Z 04001KT M08/M21 A3042 RMK A01 T10801212  RH  035%=      5-min Rain = 0
KGU1 170936Z 04001KT M08/M21 A3042 RMK A01 T10811214  RH  034%=      5-min Rain = 0
KGU1 170937Z 00000KT M08/M22 A3042 RMK A01 T10801217  RH  033%=      5-min Rain = 0
KGU1 170938Z 04000KT M08/M22 A3042 RMK A01 T10801219  RH  033%=      5-min Rain = 0
KGU1 170939Z 03000KT M08/M22 A3042 RMK A01 T10791220  RH  032%=      5-min Rain = 0
KGU1 170940Z 01002KT M08/M22 A3042 RMK A01 T10781223  RH  031%=      5-min Rain = 0
KGU1 170941Z 01001KT M08/M22 A3042 RMK A01 T10781220  RH  032%=      5-min Rain = 0
KGU1 170942Z 01001KT M08/M22 A3042 RMK A01 T10771222  RH  031%=      5-min Rain = 0
KGU1 170943Z 01001KT M08/M22 A3041 RMK A01 T10771223  RH  031%=      5-min Rain = 0
KGU1 170944Z 00001KT M08/M22 A3041 RMK A01 T10771221  RH  031%=      5-min Rain = 0
KGU1 170945Z 00001KT M08/M22 A3041 RMK A01 T10771217  RH  032%=      5-min Rain = 0
KGU1 170946Z 00000KT M08/M21 A3041 RMK A01 T10781211  RH  034%=      5-min Rain = 0
KGU1 170947Z 33000KT M08/M20 A3041 RMK A01 T10801199  RH  039%=      5-min Rain = 0
KGU1 170948Z 33001KT M08/M20 A3041 RMK A01 T10831196  RH  041%=      5-min Rain = 0
KGU1 170949Z 33000KT M09/M20 A3041 RMK A01 T10851197  RH  041%=      5-min Rain = 0
KGU1 170950Z 33000KT M09/M19 A3041 RMK A01 T10861194  RH  042%=      5-min Rain = 0
KGU1 170951Z 33000KT M09/M19 A3041 RMK A01 T10871191  RH  044%=      5-min Rain = 0
KGU1 170952Z 00000KT M09/M19 A3041 RMK A01 T10881194  RH  043%=      5-min Rain = 0
KGU1 170953Z 33000KT M09/M20 A3041 RMK A01 T10881197  RH  042%=      5-min Rain = 0
KGU1 170954Z 32001KT M09/M20 A3041 RMK A01 T10881196  RH  042%=      5-min Rain = 0
KGU1 170955Z 31002KT M09/M19 A3041 RMK A01 T10881193  RH  043%=      5-min Rain = 0
KGU1 170956Z 29003KT M09/M19 A3041 RMK A01 T10891186  RH  046%=      5-min Rain = 0
KGU1 170957Z 29003KT M09/M18 A3041 RMK A01 T10901183  RH  048%=      5-min Rain = 0
KGU1 170958Z 28003KT M09/M18 A3041 RMK A01 T10911182  RH  049%=      5-min Rain = 0
KGU1 170959Z 29003KT M09/M18 A3041 RMK A01 T10911181  RH  049%=      5-min Rain = 0
KGU1 171000Z 28003KT M09/M18 A3041 RMK A01 T10921181  RH  049%=      5-min Rain = 0
KGU1 171001Z 28004KT M09/M18 A3041 RMK A01 T10921180  RH  050%=      5-min Rain = 0
KGU1 171002Z 29005KT M09/M18 A3041 RMK A01 T10931179  RH  051%=      5-min Rain = 0
KGU1 171003Z 29005KT M09/M18 A3041 RMK A01 T10941178  RH  051%=      5-min Rain = 0
KGU1 171004Z 29005KT M09/M18 A3041 RMK A01 T10941176  RH  052%=      5-min Rain = 0
KGU1 171005Z 29005KT M09/M18 A3041 RMK A01 T10941175  RH  053%=      5-min Rain = 0
KGU1 171006Z 29005KT M09/M18 A3041 RMK A01 T10941175  RH  053%=      5-min Rain = 0
KGU1 171007Z 28004KT M09/M18 A3041 RMK A01 T10941176  RH  052%=      5-min Rain = 0
KGU1 171008Z 28004KT M09/M18 A3041 RMK A01 T10941176  RH  052%=      5-min Rain = 0
KGU1 171009Z 28005KT M09/M18 A3041 RMK A01 T10941175  RH  053%=      5-min Rain = 0
KGU1 171010Z 28005KT M09/M17 A3041 RMK A01 T10941173  RH  054%=      5-min Rain = 0
KGU1 171011Z 28005KT M09/M17 A3041 RMK A01 T10941170  RH  055%=      5-min Rain = 0
KGU1 171012Z 28005KT M09/M17 A3041 RMK A01 T10941167  RH  056%=      5-min Rain = 0
KGU1 171013Z 28005KT M09/M17 A3041 RMK A01 T10941165  RH  057%=      5-min Rain = 0
KGU1 171014Z 28005KT M09/M16 A304 RMK A01 T10931164  RH  058%=      5-min Rain = 0
KGU1 171015Z 28004KT M09/M16 A304 RMK A01 T10921162  RH  058%=      5-min Rain = 0
KGU1 171016Z 28004KT M09/M16 A304 RMK A01 T10921161  RH  058%=      5-min Rain = 0
KGU1 171017Z 28004KT M09/M16 A304 RMK A01 T10911160  RH  058%=      5-min Rain = 0
KGU1 171018Z 28004KT M09/M16 A304 RMK A01 T10901159  RH  058%=      5-min Rain = 0
KGU1 171019Z 28004KT M09/M16 A304 RMK A01 T10901158  RH  059%=      5-min Rain = 0
KGU1 171020Z 28004KT M09/M16 A304 RMK A01 T10891157  RH  059%=      5-min Rain = 0
KGU1 171021Z 27005KT M09/M16 A304 RMK A01 T10881156  RH  059%=      5-min Rain = 0
KGU1 171022Z 27005KT M09/M15 A304 RMK A01 T10871154  RH  059%=      5-min Rain = 0
KGU1 171023Z 27005KT M09/M15 A304 RMK A01 T10861153  RH  059%=      5-min Rain = 0
KGU1 171024Z 27005KT M09/M15 A304 RMK A01 T10851154  RH  059%=      5-min Rain = 0
KGU1 171025Z 28005KT M08/M15 A304 RMK A01 T10841153  RH  058%=      5-min Rain = 0
KGU1 171026Z 28005KT M08/M15 A304 RMK A01 T10841153  RH  058%=      5-min Rain = 0
KGU1 171027Z 28004KT M08/M15 A304 RMK A01 T10831153  RH  058%=      5-min Rain = 0
KGU1 171028Z 28005KT M08/M15 A304 RMK A01 T10831153  RH  058%=      5-min Rain = 0
KGU1 171029Z 29005KT M08/M15 A304 RMK A01 T10831150  RH  059%=      5-min Rain = 0
KGU1 171030Z 29005KT M08/M15 A304 RMK A01 T10811145  RH  061%=      5-min Rain = 0
KGU1 171031Z 29006KT M08/M14 A304 RMK A01 T10801144  RH  061%=      5-min Rain = 0
KGU1 171032Z 29005KT M08/M14 A304 RMK A01 T10801143  RH  062%=      5-min Rain = 0
KGU1 171033Z 29005KT M08/M14 A304 RMK A01 T10791142  RH  062%=      5-min Rain = 0
KGU1 171034Z 28004KT M08/M14 A304 RMK A01 T10791141  RH  062%=      5-min Rain = 0
KGU1 171035Z 25003KT M08/M14 A304 RMK A01 T10791142  RH  062%=      5-min Rain = 0
KGU1 171036Z 26003KT M08/M14 A304 RMK A01 T10791144  RH  061%=      5-min Rain = 0
KGU1 171037Z 27003KT M08/M14 A304 RMK A01 T10801143  RH  061%=      5-min Rain = 0
KGU1 171038Z 27003KT M08/M14 A304 RMK A01 T10791142  RH  061%=      5-min Rain = 0
KGU1 171039Z 27004KT M08/M14 A304 RMK A01 T10791141  RH  062%=      5-min Rain = 0
KGU1 171040Z 27004KT M08/M14 A304 RMK A01 T10781140  RH  062%=      5-min Rain = 0
KGU1 171041Z 26003KT M08/M14 A304 RMK A01 T10781143  RH  061%=      5-min Rain = 0
KGU1 171042Z 26002KT M08/M14 A304 RMK A01 T10781143  RH  061%=      5-min Rain = 0
KGU1 171043Z 27003KT M08/M14 A304 RMK A01 T10781144  RH  060%=      5-min Rain = 0
KGU1 171044Z 28003KT M08/M14 A304 RMK A01 T10781144  RH  060%=      5-min Rain = 0
KGU1 171045Z 27002KT M08/M15 A304 RMK A01 T10791145  RH  060%=      5-min Rain = 0
KGU1 171046Z 28002KT M08/M14 A304 RMK A01 T10791144  RH  061%=      5-min Rain = 0
KGU1 171047Z 26002KT M08/M14 A304 RMK A01 T10791142  RH  061%=      5-min Rain = 0
KGU1 171048Z 25003KT M08/M14 A304 RMK A01 T10781140  RH  062%=      5-min Rain = 0
KGU1 171049Z 24003KT M08/M14 A304 RMK A01 T10761140  RH  061%=      5-min Rain = 0
KGU1 171050Z 23002KT M08/M14 A304 RMK A01 T10751142  RH  060%=      5-min Rain = 0
KGU1 171051Z 24002KT M07/M14 A304 RMK A01 T10731143  RH  059%=      5-min Rain = 0
KGU1 171052Z 25003KT M07/M14 A304 RMK A01 T10731142  RH  059%=      5-min Rain = 0
KGU1 171053Z 26003KT M07/M14 A304 RMK A01 T10721142  RH  058%=      5-min Rain = 0
KGU1 171054Z 25003KT M07/M14 A304 RMK A01 T10711143  RH  058%=      5-min Rain = 0
KGU1 171055Z 26004KT M07/M14 A304 RMK A01 T10701142  RH  057%=      5-min Rain = 0
KGU1 171056Z 26003KT M07/M14 A304 RMK A01 T10691141  RH  057%=      5-min Rain = 0
KGU1 171057Z 27003KT M07/M14 A304 RMK A01 T10681140  RH  058%=      5-min Rain = 0
KGU1 171058Z 26003KT M07/M14 A3039 RMK A01 T10681139  RH  058%=      5-min Rain = 0
KGU1 171059Z 27003KT M07/M14 A3039 RMK A01 T10671140  RH  057%=      5-min Rain = 0
KGU1 171100Z 27003KT M07/M14 A3039 RMK A01 T10671141  RH  056%=      5-min Rain = 0
KGU1 171101Z 28004KT M07/M14 A3039 RMK A01 T10671140  RH  057%=      5-min Rain = 0
KGU1 171102Z 28004KT M07/M14 A3039 RMK A01 T10661140  RH  057%=      5-min Rain = 0
KGU1 171103Z 27003KT M07/M14 A3039 RMK A01 T10661139  RH  057%=      5-min Rain = 0
KGU1 171104Z 27003KT M07/M14 A3039 RMK A01 T10661138  RH  057%=      5-min Rain = 0
KGU1 171105Z 28004KT M07/M14 A3039 RMK A01 T10661138  RH  057%=      5-min Rain = 0
KGU1 171106Z 28004KT M07/M14 A3039 RMK A01 T10661138  RH  057%=      5-min Rain = 0
KGU1 171107Z 27004KT M07/M14 A3039 RMK A01 T10661139  RH  057%=      5-min Rain = 0
KGU1 171108Z 26004KT M07/M14 A3039 RMK A01 T10661138  RH  057%=      5-min Rain = 0
KGU1 171109Z 26004KT M07/M14 A3039 RMK A01 T10651137  RH  058%=      5-min Rain = 0
KGU1 171110Z 26004KT M07/M13 A3039 RMK A01 T10651134  RH  059%=      5-min Rain = 0
KGU1 171111Z 26004KT M06/M13 A3039 RMK A01 T10641132  RH  059%=      5-min Rain = 0
KGU1 171112Z 26004KT M06/M13 A3039 RMK A01 T10631131  RH  060%=      5-min Rain = 0
KGU1 171113Z 25004KT M06/M13 A3039 RMK A01 T10621127  RH  061%=      5-min Rain = 0
KGU1 171114Z 26005KT M06/M12 A3039 RMK A01 T10611123  RH  062%=      5-min Rain = 0
KGU1 171115Z 26005KT M06/M12 A3039 RMK A01 T10591123  RH  062%=      5-min Rain = 0
KGU1 171116Z 26004KT M06/M12 A3039 RMK A01 T10591124  RH  061%=      5-min Rain = 0
KGU1 171117Z 27004KT M06/M13 A3039 RMK A01 T10591125  RH  060%=      5-min Rain = 0
KGU1 171118Z 27004KT M06/M12 A3039 RMK A01 T10591124  RH  061%=      5-min Rain = 0
KGU1 171119Z 26004KT M06/M12 A3039 RMK A01 T10591123  RH  061%=      5-min Rain = 0
KGU1 171120Z 26003KT M06/M12 A3039 RMK A01 T10581122  RH  062%=      5-min Rain = 0
KGU1 171121Z 25003KT M06/M12 A3039 RMK A01 T10581119  RH  063%=      5-min Rain = 0
KGU1 171122Z 25003KT M06/M12 A3038 RMK A01 T10571118  RH  063%=      5-min Rain = 0
KGU1 171123Z 24004KT M06/M11 A3038 RMK A01 T10561111  RH  066%=      5-min Rain = 0
KGU1 171124Z 24004KT M06/M11 A3038 RMK A01 T10551106  RH  068%=      5-min Rain = 0
KGU1 171125Z 23003KT M05/M10 A3038 RMK A01 T10531102  RH  069%=      5-min Rain = 0
KGU1 171126Z 23003KT M05/M10 A3038 RMK A01 T10521100  RH  070%=      5-min Rain = 0
KGU1 171127Z 23003KT M05/M10 A3038 RMK A01 T10511098  RH  070%=      5-min Rain = 0
KGU1 171128Z 22003KT M05/M10 A3038 RMK A01 T10501095  RH  072%=      5-min Rain = 0
KGU1 171129Z 22005KT M05/M09 A3038 RMK A01 T10481090  RH  074%=      5-min Rain = 0
KGU1 171130Z 22004KT M05/M09 A3038 RMK A01 T10471089  RH  074%=      5-min Rain = 0
KGU1 171131Z 22003KT M05/M09 A3038 RMK A01 T10471090  RH  072%=      5-min Rain = 0
KGU1 171132Z 21004KT M05/M09 A3038 RMK A01 T10461090  RH  072%=      5-min Rain = 0
KGU1 171133Z 21005KT M05/M09 A3038 RMK A01 T10461093  RH  071%=      5-min Rain = 0
KGU1 171134Z 21005KT M05/M10 A3038 RMK A01 T10461095  RH  069%=      5-min Rain = 0
KGU1 171135Z 21004KT M05/M10 A3038 RMK A01 T10461100  RH  067%=      5-min Rain = 0
KGU1 171136Z 20006KT M05/M11 A3038 RMK A01 T10471108  RH  063%=      5-min Rain = 0
KGU1 171137Z 20005KT M05/M11 A3038 RMK A01 T10481113  RH  061%=      5-min Rain = 0
KGU1 171138Z 21005KT M05/M12 A3038 RMK A01 T10491116  RH  060%=      5-min Rain = 0
KGU1 171139Z 21004KT M05/M12 A3038 RMK A01 T10501117  RH  060%=      5-min Rain = 0
KGU1 171140Z 21005KT M05/M12 A3038 RMK A01 T10501117  RH  060%=      5-min Rain = 0
KGU1 171141Z 20006KT M05/M12 A3038 RMK A01 T10511121  RH  059%=      5-min Rain = 0
KGU1 171142Z 20006KT M05/M13 A3038 RMK A01 T10521127  RH  056%=      5-min Rain = 0
KGU1 171143Z 20005KT M05/M13 A3038 RMK A01 T10521129  RH  056%=      5-min Rain = 0
KGU1 171144Z 20004KT M05/M13 A3038 RMK A01 T10531131  RH  055%=      5-min Rain = 0
KGU1 171145Z 21003KT M05/M13 A3038 RMK A01 T10531132  RH  055%=      5-min Rain = 0
KGU1 171146Z 21004KT M05/M13 A3038 RMK A01 T10541129  RH  056%=      5-min Rain = 0
KGU1 171147Z 21004KT M05/M13 A3038 RMK A01 T10541126  RH  058%=      5-min Rain = 0
KGU1 171148Z 22005KT M05/M13 A3038 RMK A01 T10531125  RH  058%=      5-min Rain = 0
KGU1 171149Z 21005KT M05/M12 A3038 RMK A01 T10531124  RH  058%=      5-min Rain = 0
KGU1 171150Z 22006KT M05/M12 A3038 RMK A01 T10531122  RH  059%=      5-min Rain = 0
KGU1 171151Z 22004KT M05/M12 A3038 RMK A01 T10521121  RH  059%=      5-min Rain = 0
KGU1 171152Z 22005KT M05/M12 A3038 RMK A01 T10511120  RH  059%=      5-min Rain = 0
KGU1 171153Z 21005KT M05/M12 A3038 RMK A01 T10511122  RH  058%=      5-min Rain = 0
KGU1 171154Z 21005KT M05/M12 A3038 RMK A01 T10511122  RH  058%=      5-min Rain = 0
KGU1 171155Z 21006KT M05/M12 A3038 RMK A01 T10511122  RH  058%=      5-min Rain = 0
KGU1 171156Z 21004KT M05/M12 A3038 RMK A01 T10511121  RH  058%=      5-min Rain = 0
KGU1 171157Z 22005KT M05/M12 A3038 RMK A01 T10501122  RH  058%=      5-min Rain = 0
KGU1 171158Z 22004KT M05/M12 A3038 RMK A01 T10501123  RH  058%=      5-min Rain = 0
KGU1 171159Z 22005KT M05/M12 A3038 RMK A01 T10501124  RH  057%=      5-min Rain = 0
KGU1 171200Z 22005KT M05/M13 A3038 RMK A01 T10501125  RH  057%=      5-min Rain = 0
KGU1 171201Z 21004KT M05/M13 A3038 RMK A01 T10501125  RH  057%=      5-min Rain = 0
KGU1 171202Z 22005KT M05/M13 A3038 RMK A01 T10501126  RH  056%=      5-min Rain = 0
KGU1 171203Z 22005KT M05/M13 A3038 RMK A01 T10501125  RH  056%=      5-min Rain = 0
KGU1 171204Z 22005KT M05/M13 A3038 RMK A01 T10501125  RH  056%=      5-min Rain = 0
KGU1 171205Z 22003KT M05/M13 A3038 RMK A01 T10501125  RH  056%=      5-min Rain = 0
KGU1 171206Z 23004KT M05/M13 A3038 RMK A01 T10501125  RH  056%=      5-min Rain = 0
KGU1 171207Z 23004KT M05/M13 A3038 RMK A01 T10501125  RH  057%=      5-min Rain = 0
KGU1 171208Z 24004KT M05/M12 A3038 RMK A01 T10501124  RH  057%=      5-min Rain = 0
KGU1 171209Z 24004KT M05/M12 A3038 RMK A01 T10501124  RH  057%=      5-min Rain = 0
KGU1 171210Z 24004KT M05/M12 A3038 RMK A01 T10491124  RH  057%=      5-min Rain = 0
KGU1 171211Z 25005KT M05/M12 A3038 RMK A01 T10501123  RH  057%=      5-min Rain = 0
KGU1 171212Z 25005KT M05/M12 A3038 RMK A01 T10491120  RH  059%=      5-min Rain = 0
KGU1 171213Z 24004KT M05/M12 A3038 RMK A01 T10491119  RH  059%=      5-min Rain = 0
KGU1 171214Z 24004KT M05/M12 A3038 RMK A01 T10491118  RH  059%=      5-min Rain = 0
KGU1 171215Z 23004KT M05/M12 A3038 RMK A01 T10481117  RH  059%=      5-min Rain = 0
KGU1 171216Z 24003KT M05/M12 A3038 RMK A01 T10481117  RH  059%=      5-min Rain = 0
KGU1 171217Z 23003KT M05/M12 A3038 RMK A01 T10481117  RH  060%=      5-min Rain = 0
KGU1 171218Z 22003KT M05/M12 A3038 RMK A01 T10481116  RH  060%=      5-min Rain = 0
KGU1 171219Z 21004KT M05/M12 A3038 RMK A01 T10481116  RH  060%=      5-min Rain = 0
KGU1 171220Z 21004KT M05/M12 A3038 RMK A01 T10481117  RH  059%=      5-min Rain = 0
KGU1 171221Z 20004KT M05/M12 A3038 RMK A01 T10481116  RH  060%=      5-min Rain = 0
KGU1 171222Z 20004KT M05/M12 A3038 RMK A01 T10481115  RH  060%=      5-min Rain = 0
KGU1 171223Z 20006KT M05/M11 A3038 RMK A01 T10481114  RH  060%=      5-min Rain = 0
KGU1 171224Z 21007KT M05/M11 A3038 RMK A01 T10481114  RH  061%=      5-min Rain = 0
KGU1 171225Z 21007KT M05/M12 A3038 RMK A01 T10481115  RH  060%=      5-min Rain = 0
KGU1 171226Z 21006KT M05/M11 A3038 RMK A01 T10491113  RH  061%=      5-min Rain = 0
KGU1 171227Z 21006KT M05/M11 A3038 RMK A01 T10491111  RH  062%=      5-min Rain = 0
KGU1 171228Z 22005KT M05/M11 A3038 RMK A01 T10491113  RH  062%=      5-min Rain = 0
KGU1 171229Z 21005KT M05/M11 A3038 RMK A01 T10491113  RH  062%=      5-min Rain = 0
KGU1 171230Z 21006KT M05/M11 A3038 RMK A01 T10491112  RH  062%=      5-min Rain = 0
KGU1 171231Z 21005KT M05/M11 A3038 RMK A01 T10491112  RH  062%=      5-min Rain = 0
KGU1 171232Z 21005KT M05/M11 A3038 RMK A01 T10491112  RH  062%=      5-min Rain = 0
KGU1 171233Z 21005KT M05/M11 A3038 RMK A01 T10491113  RH  062%=      5-min Rain = 0
KGU1 171234Z 21004KT M05/M11 A3038 RMK A01 T10491113  RH  062%=      5-min Rain = 0
KGU1 171235Z 22005KT M05/M11 A3038 RMK A01 T10491111  RH  063%=      5-min Rain = 0
KGU1 171236Z 22005KT M05/M11 A3038 RMK A01 T10491111  RH  063%=      5-min Rain = 0
KGU1 171237Z 22005KT M05/M11 A3038 RMK A01 T10491110  RH  063%=      5-min Rain = 0
KGU1 171238Z 22006KT M05/M11 A3038 RMK A01 T10491110  RH  063%=      5-min Rain = 0
KGU1 171239Z 23004KT M05/M11 A3038 RMK A01 T10491111  RH  063%=      5-min Rain = 0
KGU1 171240Z 22003KT M05/M11 A3038 RMK A01 T10491110  RH  063%=      5-min Rain = 0
KGU1 171241Z 22004KT M05/M11 A3038 RMK A01 T10491110  RH  063%=      5-min Rain = 0
KGU1 171242Z 23003KT M05/M11 A3038 RMK A01 T10491110  RH  063%=      5-min Rain = 0
KGU1 171243Z 25002KT M05/M11 A3038 RMK A01 T10491110  RH  063%=      5-min Rain = 0
KGU1 171244Z 25005KT M05/M11 A3038 RMK A01 T10491108  RH  064%=      5-min Rain = 0
KGU1 171245Z 24005KT M05/M11 A3038 RMK A01 T10481107  RH  065%=      5-min Rain = 0
KGU1 171246Z 25005KT M05/M11 A3038 RMK A01 T10481107  RH  064%=      5-min Rain = 0
KGU1 171247Z 26005KT M05/M10 A3038 RMK A01 T10481104  RH  066%=      5-min Rain = 0
KGU1 171248Z 25005KT M05/M10 A3038 RMK A01 T10481100  RH  067%=      5-min Rain = 0
KGU1 171249Z 25005KT M05/M10 A3038 RMK A01 T10471098  RH  069%=      5-min Rain = 0
KGU1 171250Z 25005KT M05/M10 A3038 RMK A01 T10471097  RH  069%=      5-min Rain = 0
KGU1 171251Z 26006KT M05/M09 A3038 RMK A01 T10461091  RH  072%=      5-min Rain = 0
KGU1 171252Z 25006KT M05/M09 A3038 RMK A01 T10461085  RH  075%=      5-min Rain = 0
KGU1 171253Z 25005KT M05/M08 A3038 RMK A01 T10451082  RH  076%=      5-min Rain = 0
KGU1 171254Z 24004KT M04/M08 A3038 RMK A01 T10441080  RH  077%=      5-min Rain = 0
KGU1 171255Z 24006KT M04/M08 A3038 RMK A01 T10431075  RH  080%=      5-min Rain = 0
KGU1 171256Z 25007KT M04/M07 A3038 RMK A01 T10431071  RH  082%=      5-min Rain = 0
KGU1 171257Z 25007KT M04/M07 A3038 RMK A01 T10421070  RH  082%=      5-min Rain = 0
KGU1 171258Z 25007KT M04/M07 A3038 RMK A01 T10411069  RH  082%=      5-min Rain = 0
KGU1 171259Z 24007KT M04/M07 A3038 RMK A01 T10411069  RH  082%=      5-min Rain = 0
KGU1 171300Z 24008KT M04/M07 A3038 RMK A01 T10411067  RH  083%=      5-min Rain = 0
KGU1 171301Z 25007KT M04/M07 A3038 RMK A01 T10411066  RH  084%=      5-min Rain = 0
KGU1 171302Z 24007KT M04/M07 A3038 RMK A01 T10401065  RH  084%=      5-min Rain = 0
KGU1 171303Z 25007KT M04/M06 A3038 RMK A01 T10401064  RH  084%=      5-min Rain = 0
KGU1 171304Z 24006KT M04/M06 A3038 RMK A01 T10401064  RH  084%=      5-min Rain = 0
KGU1 171305Z 24007KT M04/M06 A3038 RMK A01 T10401063  RH  085%=      5-min Rain = 0
KGU1 171306Z 22005KT M04/M07 A3038 RMK A01 T10401070  RH  081%=      5-min Rain = 0
KGU1 171307Z 22006KT M04/M09 A3038 RMK A01 T10411089  RH  070%=      5-min Rain = 0
KGU1 171308Z 23005KT M04/M10 A3038 RMK A01 T10431095  RH  068%=      5-min Rain = 0
KGU1 171309Z 23005KT M04/M09 A3038 RMK A01 T10441093  RH  070%=      5-min Rain = 0
KGU1 171310Z 21007KT M05/M10 A3038 RMK A01 T10451095  RH  069%=      5-min Rain = 0
KGU1 171311Z 21008KT M05/M10 A3038 RMK A01 T10461102  RH  065%=      5-min Rain = 0
KGU1 171312Z 21008KT M05/M11 A3038 RMK A01 T10471108  RH  063%=      5-min Rain = 0
KGU1 171313Z 21007KT M05/M11 A3038 RMK A01 T10481109  RH  063%=      5-min Rain = 0
KGU1 171314Z 21006KT M05/M11 A3038 RMK A01 T10491110  RH  063%=      5-min Rain = 0
KGU1 171315Z 22006KT M05/M11 A3038 RMK A01 T10491110  RH  063%=      5-min Rain = 0
KGU1 171316Z 22006KT M05/M11 A3038 RMK A01 T10491111  RH  063%=      5-min Rain = 0
KGU1 171317Z 22005KT M05/M11 A3038 RMK A01 T10501111  RH  063%=      5-min Rain = 0
KGU1 171318Z 22006KT M05/M11 A3038 RMK A01 T10501112  RH  062%=      5-min Rain = 0
KGU1 171319Z 22005KT M05/M11 A3038 RMK A01 T10501113  RH  062%=      5-min Rain = 0
KGU1 171320Z 22006KT M05/M11 A3038 RMK A01 T10501113  RH  062%=      5-min Rain = 0
KGU1 171321Z 22005KT M05/M11 A3038 RMK A01 T10511113  RH  062%=      5-min Rain = 0
KGU1 171322Z 23005KT M05/M12 A3038 RMK A01 T10511115  RH  062%=      5-min Rain = 0
KGU1 171323Z 22004KT M05/M11 A3038 RMK A01 T10511114  RH  062%=      5-min Rain = 0
KGU1 171324Z 23004KT M05/M11 A3038 RMK A01 T10511114  RH  062%=      5-min Rain = 0
KGU1 171325Z 22005KT M05/M12 A3038 RMK A01 T10511115  RH  061%=      5-min Rain = 0
KGU1 171326Z 22005KT M05/M12 A3038 RMK A01 T10511116  RH  061%=      5-min Rain = 0
KGU1 171327Z 22005KT M05/M12 A3038 RMK A01 T10511115  RH  061%=      5-min Rain = 0
KGU1 171328Z 22005KT M05/M12 A3038 RMK A01 T10511116  RH  061%=      5-min Rain = 0
KGU1 171329Z 22005KT M05/M12 A3038 RMK A01 T10511117  RH  060%=      5-min Rain = 0
KGU1 171330Z 22006KT M05/M12 A3038 RMK A01 T10511118  RH  060%=      5-min Rain = 0
KGU1 171331Z 22004KT M05/M12 A3038 RMK A01 T10521119  RH  060%=      5-min Rain = 0
KGU1 171332Z 23003KT M05/M12 A3038 RMK A01 T10511118  RH  060%=      5-min Rain = 0
KGU1 171333Z 23005KT M05/M12 A3038 RMK A01 T10511119  RH  060%=      5-min Rain = 0
KGU1 171334Z 23004KT M05/M12 A3038 RMK A01 T10511119  RH  060%=      5-min Rain = 0
KGU1 171335Z 23004KT M05/M12 A3038 RMK A01 T10521119  RH  060%=      5-min Rain = 0
KGU1 171336Z 24005KT M05/M12 A3038 RMK A01 T10511119  RH  060%=      5-min Rain = 0
KGU1 171337Z 24003KT M05/M12 A3038 RMK A01 T10511115  RH  062%=      5-min Rain = 0
KGU1 171338Z 24003KT M05/M12 A3038 RMK A01 T10511115  RH  062%=      5-min Rain = 0
KGU1 171339Z 25003KT M05/M11 A3038 RMK A01 T10511113  RH  063%=      5-min Rain = 0
KGU1 171340Z 25005KT M05/M10 A3038 RMK A01 T10511102  RH  068%=      5-min Rain = 0
KGU1 171341Z 25004KT M05/M09 A3038 RMK A01 T10501090  RH  074%=      5-min Rain = 0
KGU1 171342Z 25003KT M05/M09 A3038 RMK A01 T10491092  RH  073%=      5-min Rain = 0
KGU1 171343Z 25005KT M05/M09 A3038 RMK A01 T10491088  RH  075%=      5-min Rain = 0
KGU1 171344Z 25004KT M05/M08 A3038 RMK A01 T10481081  RH  079%=      5-min Rain = 0
KGU1 171345Z 26004KT M05/M08 A3038 RMK A01 T10481082  RH  078%=      5-min Rain = 0
KGU1 171346Z 26003KT M05/M08 A3038 RMK A01 T10471081  RH  078%=      5-min Rain = 0
KGU1 171347Z 26004KT M05/M08 A3038 RMK A01 T10471080  RH  079%=      5-min Rain = 0
KGU1 171348Z 26003KT M05/M08 A3038 RMK A01 T10471075  RH  081%=      5-min Rain = 0
KGU1 171349Z 26003KT M05/M07 A3038 RMK A01 T10461074  RH  082%=      5-min Rain = 0
KGU1 171350Z 26004KT M05/M07 A3038 RMK A01 T10461072  RH  083%=      5-min Rain = 0
KGU1 171351Z 26004KT M05/M07 A3038 RMK A01 T10461069  RH  085%=      5-min Rain = 0
KGU1 171352Z 25003KT M05/M07 A3038 RMK A01 T10461068  RH  085%=      5-min Rain = 0
KGU1 171353Z 23003KT M05/M07 A3038 RMK A01 T10451068  RH  086%=      5-min Rain = 0
KGU1 171354Z 23002KT M05/M07 A3038 RMK A01 T10451068  RH  085%=      5-min Rain = 0
KGU1 171355Z 26002KT M05/M07 A3038 RMK A01 T10451068  RH  085%=      5-min Rain = 0
KGU1 171356Z 25003KT M05/M07 A3038 RMK A01 T10451068  RH  085%=      5-min Rain = 0
KGU1 171357Z 25003KT M05/M07 A3038 RMK A01 T10451068  RH  085%=      5-min Rain = 0
KGU1 171358Z 26002KT M05/M07 A3038 RMK A01 T10451068  RH  085%=      5-min Rain = 0
KGU1 171359Z 24002KT M05/M07 A3038 RMK A01 T10451068  RH  085%=      5-min Rain = 0
KGU1 171400Z 25004KT M05/M07 A3038 RMK A01 T10451067  RH  085%=      5-min Rain = 0
KGU1 171401Z 23005KT M04/M07 A3038 RMK A01 T10441067  RH  085%=      5-min Rain = 0
KGU1 171402Z 22004KT M05/M07 A3038 RMK A01 T10451067  RH  086%=      5-min Rain = 0
KGU1 171403Z 22003KT M05/M07 A3038 RMK A01 T10451068  RH  085%=      5-min Rain = 0
KGU1 171404Z 21003KT M05/M07 A3038 RMK A01 T10451069  RH  084%=      5-min Rain = 0
KGU1 171405Z 21002KT M05/M07 A3038 RMK A01 T10451070  RH  084%=      5-min Rain = 0
KGU1 171406Z 21002KT M05/M07 A3038 RMK A01 T10451070  RH  084%=      5-min Rain = 0
KGU1 171407Z 23002KT M05/M07 A3038 RMK A01 T10451070  RH  084%=      5-min Rain = 0
KGU1 171408Z 23001KT M05/M07 A3038 RMK A01 T10451069  RH  084%=      5-min Rain = 0
KGU1 171409Z 23000KT M05/M07 A3038 RMK A01 T10451068  RH  085%=      5-min Rain = 0
KGU1 171410Z 25001KT M05/M07 A3038 RMK A01 T10451067  RH  085%=      5-min Rain = 0
KGU1 171411Z 27002KT M04/M07 A3038 RMK A01 T10441066  RH  086%=      5-min Rain = 0
KGU1 171412Z 27002KT M04/M07 A3038 RMK A01 T10441065  RH  086%=      5-min Rain = 0
KGU1 171413Z 27002KT M04/M07 A3038 RMK A01 T10441065  RH  087%=      5-min Rain = 0
KGU1 171414Z 27004KT M04/M06 A3038 RMK A01 T10441064  RH  087%=      5-min Rain = 0
KGU1 171415Z 26004KT M04/M06 A3038 RMK A01 T10441063  RH  088%=      5-min Rain = 0
KGU1 171416Z 26004KT M04/M06 A3038 RMK A01 T10441063  RH  088%=      5-min Rain = 0
KGU1 171417Z 25004KT M04/M06 A3038 RMK A01 T10441063  RH  088%=      5-min Rain = 0
KGU1 171418Z 25004KT M05/M06 A3038 RMK A01 T10451063  RH  088%=      5-min Rain = 0
KGU1 171419Z 25005KT M05/M06 A3038 RMK A01 T10451063  RH  088%=      5-min Rain = 0
KGU1 171420Z 25004KT M05/M06 A3038 RMK A01 T10451062  RH  089%=      5-min Rain = 0
KGU1 171421Z 25003KT M05/M06 A3038 RMK A01 T10451062  RH  089%=      5-min Rain = 0
KGU1 171422Z 24003KT M05/M06 A3038 RMK A01 T10451061  RH  089%=      5-min Rain = 0
KGU1 171423Z 23001KT M04/M06 A3038 RMK A01 T10441061  RH  089%=      5-min Rain = 0
KGU1 171424Z 25001KT M05/M06 A3038 RMK A01 T10451061  RH  089%=      5-min Rain = 0
KGU1 171425Z 26002KT M05/M06 A3038 RMK A01 T10451061  RH  089%=      5-min Rain = 0
KGU1 171426Z 24002KT M05/M06 A3038 RMK A01 T10451061  RH  089%=      5-min Rain = 0
KGU1 171427Z 25002KT M04/M06 A3038 RMK A01 T10441061  RH  089%=      5-min Rain = 0
KGU1 171428Z 24002KT M04/M06 A3038 RMK A01 T10441061  RH  089%=      5-min Rain = 0
KGU1 171429Z 23002KT M04/M06 A3038 RMK A01 T10441061  RH  089%=      5-min Rain = 0
KGU1 171430Z 24002KT M04/M06 A3038 RMK A01 T10441062  RH  088%=      5-min Rain = 0
KGU1 171431Z 24003KT M04/M06 A3038 RMK A01 T10441062  RH  088%=      5-min Rain = 0
KGU1 171432Z 23003KT M04/M06 A3038 RMK A01 T10441062  RH  088%=      5-min Rain = 0
KGU1 171433Z 23003KT M04/M06 A3038 RMK A01 T10441062  RH  088%=      5-min Rain = 0
KGU1 171434Z 20002KT M04/M06 A3038 RMK A01 T10441062  RH  088%=      5-min Rain = 0
KGU1 171435Z 19003KT M04/M06 A3038 RMK A01 T10441062  RH  088%=      5-min Rain = 0
KGU1 171436Z 19004KT M04/M06 A3038 RMK A01 T10441063  RH  088%=      5-min Rain = 0
KGU1 171437Z 21004KT M04/M06 A3038 RMK A01 T10441063  RH  088%=      5-min Rain = 0
KGU1 171438Z 22005KT M04/M06 A3038 RMK A01 T10441063  RH  088%=      5-min Rain = 0
KGU1 171439Z 24003KT M04/M06 A3038 RMK A01 T10441063  RH  088%=      5-min Rain = 0
KGU1 171440Z 25003KT M04/M06 A3038 RMK A01 T10441062  RH  088%=      5-min Rain = 0
KGU1 171441Z 24004KT M04/M06 A3038 RMK A01 T10441062  RH  088%=      5-min Rain = 0
KGU1 171442Z 25005KT M04/M06 A3038 RMK A01 T10441062  RH  088%=      5-min Rain = 0
KGU1 171443Z 25005KT M04/M06 A3038 RMK A01 T10441063  RH  088%=      5-min Rain = 0
KGU1 171444Z 23005KT M05/M06 A3038 RMK A01 T10451064  RH  088%=      5-min Rain = 0
KGU1 171445Z 22003KT M04/M06 A3038 RMK A01 T10441064  RH  087%=      5-min Rain = 0
KGU1 171446Z 25004KT M04/M06 A3038 RMK A01 T10441063  RH  087%=      5-min Rain = 0
KGU1 171447Z 25005KT M04/M06 A3038 RMK A01 T10441063  RH  088%=      5-min Rain = 0
KGU1 171448Z 22005KT M04/M06 A3039 RMK A01 T10441063  RH  088%=      5-min Rain = 0
KGU1 171449Z 20005KT M04/M08 A3039 RMK A01 T10441076  RH  080%=      5-min Rain = 0
KGU1 171450Z 20003KT M05/M09 A3039 RMK A01 T10451092  RH  070%=      5-min Rain = 0
KGU1 171451Z 20005KT M05/M10 A3039 RMK A01 T10451097  RH  068%=      5-min Rain = 0
KGU1 171452Z 20004KT M05/M10 A3039 RMK A01 T10451102  RH  066%=      5-min Rain = 0
KGU1 171453Z 20004KT M05/M10 A3039 RMK A01 T10451100  RH  067%=      5-min Rain = 0
KGU1 171454Z 20005KT M05/M10 A3039 RMK A01 T10461102  RH  065%=      5-min Rain = 0
KGU1 171455Z 20004KT M05/M10 A3039 RMK A01 T10461097  RH  068%=      5-min Rain = 0
KGU1 171456Z 21004KT M05/M09 A3039 RMK A01 T10451093  RH  070%=      5-min Rain = 0
KGU1 171457Z 20004KT M05/M09 A3039 RMK A01 T10451094  RH  069%=      5-min Rain = 0
KGU1 171458Z 20005KT M04/M10 A3039 RMK A01 T10441095  RH  069%=      5-min Rain = 0
KGU1 171459Z 21005KT M04/M10 A3039 RMK A01 T10441096  RH  068%=      5-min Rain = 0
KGU1 171500Z 21005KT M05/M10 A3039 RMK A01 T10451095  RH  069%=      5-min Rain = 0
KGU1 171501Z 23005KT M04/M09 A3039 RMK A01 T10441088  RH  072%=      5-min Rain = 0
KGU1 171502Z 23004KT M04/M08 A3039 RMK A01 T10441079  RH  078%=      5-min Rain = 0
KGU1 171503Z 21005KT M04/M08 A3039 RMK A01 T10441081  RH  076%=      5-min Rain = 0
KGU1 171504Z 22005KT M04/M09 A3039 RMK A01 T10431089  RH  072%=      5-min Rain = 0
KGU1 171505Z 22005KT M04/M09 A3039 RMK A01 T10431093  RH  069%=      5-min Rain = 0
KGU1 171506Z 22005KT M04/M09 A3039 RMK A01 T10431090  RH  071%=      5-min Rain = 0
KGU1 171507Z 22004KT M04/M09 A3039 RMK A01 T10441090  RH  071%=      5-min Rain = 0
KGU1 171508Z 22005KT M04/M09 A3039 RMK A01 T10431094  RH  068%=      5-min Rain = 0
KGU1 171509Z 22005KT M04/M10 A3039 RMK A01 T10431099  RH  066%=      5-min Rain = 0
KGU1 171510Z 23005KT M04/M10 A3039 RMK A01 T10431095  RH  068%=      5-min Rain = 0
KGU1 171511Z 23005KT M04/M09 A3039 RMK A01 T10431089  RH  071%=      5-min Rain = 0
KGU1 171512Z 23003KT M04/M09 A3039 RMK A01 T10421086  RH  072%=      5-min Rain = 0
KGU1 171513Z 22004KT M04/M09 A3039 RMK A01 T10411087  RH  071%=      5-min Rain = 0
KGU1 171514Z 21005KT M04/M09 A3039 RMK A01 T10411092  RH  069%=      5-min Rain = 0
KGU1 171515Z 22007KT M04/M10 A3039 RMK A01 T10411098  RH  065%=      5-min Rain = 0
KGU1 171516Z 22006KT M04/M09 A3039 RMK A01 T10411094  RH  067%=      5-min Rain = 0
KGU1 171517Z 22007KT M04/M09 A3039 RMK A01 T10421089  RH  071%=      5-min Rain = 0
KGU1 171518Z 22005KT M04/M08 A3039 RMK A01 T10421082  RH  075%=      5-min Rain = 0
KGU1 171519Z 22004KT M04/M08 A3039 RMK A01 T10431084  RH  074%=      5-min Rain = 0
KGU1 171520Z 21006KT M04/M09 A3039 RMK A01 T10421085  RH  073%=      5-min Rain = 0
KGU1 171521Z 22006KT M04/M09 A3039 RMK A01 T10421086  RH  072%=      5-min Rain = 0
KGU1 171522Z 22007KT M04/M09 A3039 RMK A01 T10421090  RH  070%=      5-min Rain = 0
KGU1 171523Z 22008KT M04/M10 A3039 RMK A01 T10431100  RH  065%=      5-min Rain = 0
KGU1 171524Z 22006KT M04/M11 A3039 RMK A01 T10431107  RH  062%=      5-min Rain = 0
KGU1 171525Z 22005KT M04/M11 A3039 RMK A01 T10441106  RH  063%=      5-min Rain = 0
KGU1 171526Z 21005KT M04/M11 A3039 RMK A01 T10441110  RH  061%=      5-min Rain = 0
KGU1 171527Z 21008KT M04/M13 A3039 RMK A01 T10441128  RH  053%=      5-min Rain = 0
KGU1 171528Z 20007KT M05/M14 A3039 RMK A01 T10451138  RH  049%=      5-min Rain = 0
KGU1 171529Z 21007KT M05/M14 A3039 RMK A01 T10461142  RH  048%=      5-min Rain = 0
KGU1 171530Z 20006KT M05/M14 A3039 RMK A01 T10471142  RH  048%=      5-min Rain = 0
KGU1 171531Z 21006KT M05/M14 A3039 RMK A01 T10471140  RH  049%=      5-min Rain = 0
KGU1 171532Z 21005KT M05/M14 A3039 RMK A01 T10471140  RH  049%=      5-min Rain = 0
KGU1 171533Z 22006KT M05/M14 A3039 RMK A01 T10471141  RH  048%=      5-min Rain = 0
KGU1 171534Z 21007KT M05/M14 A3039 RMK A01 T10471138  RH  050%=      5-min Rain = 0
KGU1 171535Z 22006KT M05/M14 A3039 RMK A01 T10471141  RH  049%=      5-min Rain = 0
KGU1 171536Z 21007KT M05/M14 A3039 RMK A01 T10471143  RH  047%=      5-min Rain = 0
KGU1 171537Z 21006KT M05/M14 A3039 RMK A01 T10471144  RH  047%=      5-min Rain = 0
KGU1 171538Z 21006KT M05/M14 A3039 RMK A01 T10461142  RH  048%=      5-min Rain = 0
KGU1 171539Z 22006KT M05/M14 A3039 RMK A01 T10461139  RH  049%=      5-min Rain = 0
KGU1 171540Z 22008KT M05/M13 A3039 RMK A01 T10451130  RH  053%=      5-min Rain = 0
KGU1 171541Z 21007KT M05/M13 A3039 RMK A01 T10461132  RH  052%=      5-min Rain = 0
KGU1 171542Z 21005KT M05/M13 A3039 RMK A01 T10451134  RH  051%=      5-min Rain = 0
KGU1 171543Z 21008KT M04/M14 A3039 RMK A01 T10441138  RH  049%=      5-min Rain = 0
KGU1 171544Z 22008KT M04/M14 A3039 RMK A01 T10441142  RH  047%=      5-min Rain = 0
KGU1 171545Z 21006KT M05/M14 A3039 RMK A01 T10451140  RH  048%=      5-min Rain = 0
KGU1 171546Z 21006KT M05/M14 A3039 RMK A01 T10451135  RH  050%=      5-min Rain = 0
KGU1 171547Z 22006KT M04/M13 A3039 RMK A01 T10441132  RH  051%=      5-min Rain = 0
KGU1 171548Z 22006KT M04/M12 A3039 RMK A01 T10431124  RH  054%=      5-min Rain = 0
KGU1 171549Z 23006KT M04/M11 A3039 RMK A01 T10431114  RH  058%=      5-min Rain = 0
KGU1 171550Z 23007KT M04/M11 A3039 RMK A01 T10421107  RH  062%=      5-min Rain = 0
KGU1 171551Z 21006KT M04/M11 A3039 RMK A01 T10421114  RH  058%=      5-min Rain = 0
KGU1 171552Z 21007KT M04/M14 A3039 RMK A01 T10421142  RH  046%=      5-min Rain = 0
KGU1 171553Z 21007KT M04/M15 A3039 RMK A01 T10421148  RH  044%=      5-min Rain = 0
KGU1 171554Z 20008KT M04/M16 A3039 RMK A01 T10431155  RH  042%=      5-min Rain = 0
KGU1 171555Z 21009KT M05/M16 A3039 RMK A01 T10451157  RH  042%=      5-min Rain = 0
KGU1 171556Z 20007KT M05/M16 A3039 RMK A01 T10451155  RH  043%=      5-min Rain = 0
KGU1 171557Z 21006KT M05/M15 A3039 RMK A01 T10451152  RH  044%=      5-min Rain = 0
KGU1 171558Z 20007KT M05/M15 A3039 RMK A01 T10451151  RH  044%=      5-min Rain = 0
KGU1 171559Z 20007KT M05/M15 A3039 RMK A01 T10451154  RH  043%=      5-min Rain = 0
KGU1 171600Z 20008KT M05/M16 A3039 RMK A01 T10451158  RH  041%=      5-min Rain = 0
KGU1 171601Z 21007KT M05/M16 A3039 RMK A01 T10451161  RH  041%=      5-min Rain = 0
KGU1 171602Z 20006KT M05/M16 A3039 RMK A01 T10451157  RH  042%=      5-min Rain = 0
KGU1 171603Z 20008KT M04/M15 A3039 RMK A01 T10441153  RH  043%=      5-min Rain = 0
KGU1 171604Z 20007KT M04/M15 A3039 RMK A01 T10441151  RH  044%=      5-min Rain = 0
KGU1 171605Z 21007KT M04/M15 A3039 RMK A01 T10431150  RH  044%=      5-min Rain = 0
KGU1 171606Z 20008KT M04/M16 A3039 RMK A01 T10431157  RH  041%=      5-min Rain = 0
KGU1 171607Z 20010KT M04/M16 A3039 RMK A01 T10431158  RH  041%=      5-min Rain = 0
KGU1 171608Z 21009KT M04/M15 A3039 RMK A01 T10441154  RH  043%=      5-min Rain = 0
KGU1 171609Z 22009KT M04/M15 A3039 RMK A01 T10441148  RH  045%=      5-min Rain = 0
KGU1 171610Z 21009KT M04/M15 A3039 RMK A01 T10441145  RH  046%=      5-min Rain = 0
KGU1 171611Z 21009KT M04/M14 A3039 RMK A01 T10441143  RH  047%=      5-min Rain = 0
KGU1 171612Z 21010KT M04/M14 A3039 RMK A01 T10431140  RH  048%=      5-min Rain = 0
KGU1 171613Z 21009KT M04/M14 A3039 RMK A01 T10431137  RH  049%=      5-min Rain = 0
KGU1 171614Z 21008KT M04/M13 A3039 RMK A01 T10431134  RH  050%=      5-min Rain = 0
KGU1 171615Z 20009KT M04/M14 A3039 RMK A01 T10421142  RH  047%=      5-min Rain = 0
KGU1 171616Z 21009KT M04/M14 A3039 RMK A01 T10431144  RH  046%=      5-min Rain = 0
KGU1 171617Z 21009KT M04/M14 A3039 RMK A01 T10431141  RH  047%=      5-min Rain = 0
KGU1 171618Z 20008KT M04/M14 A3039 RMK A01 T10421135  RH  049%=      5-min Rain = 0
KGU1 171619Z 21009KT M04/M13 A3038 RMK A01 T10411128  RH  052%=      5-min Rain = 0
KGU1 171620Z 22010KT M04/M11 A3038 RMK A01 T10381110  RH  058%=      5-min Rain = 0
KGU1 171621Z 22008KT M04/M11 A3038 RMK A01 T10361110  RH  057%=      5-min Rain = 0
KGU1 171622Z 21009KT M03/M12 A3038 RMK A01 T10341116  RH  054%=      5-min Rain = 0
KGU1 171623Z 21011KT M03/M11 A3038 RMK A01 T10331108  RH  057%=      5-min Rain = 0
KGU1 171624Z 21010KT M03/M11 A3038 RMK A01 T10321107  RH  057%=      5-min Rain = 0
KGU1 171625Z 21009KT M03/M11 A3038 RMK A01 T10311113  RH  054%=      5-min Rain = 0
KGU1 171626Z 21011KT M03/M12 A3038 RMK A01 T10311115  RH  053%=      5-min Rain = 0
KGU1 171627Z 21012KT M03/M12 A3038 RMK A01 T10321119  RH  052%=      5-min Rain = 0
KGU1 171628Z 20010KT M03/M11 A3038 RMK A01 T10321110  RH  055%=      5-min Rain = 0
KGU1 171629Z 21010KT M03/M11 A3038 RMK A01 T10311111  RH  055%=      5-min Rain = 0
KGU1 171630Z 20009KT M03/M12 A3038 RMK A01 T10311118  RH  052%=      5-min Rain = 0
KGU1 171631Z 20008KT M03/M11 A3038 RMK A01 T10301109  RH  055%=      5-min Rain = 0
KGU1 171632Z 21011KT M03/M10 A3038 RMK A01 T10291103  RH  057%=      5-min Rain = 0
KGU1 171633Z 20011KT M03/M10 A3038 RMK A01 T10291102  RH  058%=      5-min Rain = 0
KGU1 171634Z 20010KT M03/M11 A3038 RMK A01 T10301106  RH  056%=      5-min Rain = 0
KGU1 171635Z 21010KT M03/M11 A3038 RMK A01 T10301108  RH  056%=      5-min Rain = 0
KGU1 171636Z 20009KT M03/M11 A3038 RMK A01 T10291112  RH  054%=      5-min Rain = 0
KGU1 171637Z 21010KT M03/M12 A3038 RMK A01 T10281116  RH  052%=      5-min Rain = 0
KGU1 171638Z 20010KT M03/M11 A3038 RMK A01 T10291111  RH  054%=      5-min Rain = 0
KGU1 171639Z 22010KT M03/M11 A3038 RMK A01 T10291112  RH  054%=      5-min Rain = 0
KGU1 171640Z 21010G15KT M03/M12 A3038 RMK A01 T10291117  RH  052%=      5-min Rain = 0
KGU1 171641Z 20013KT M03/M12 A3038 RMK A01 T10301117  RH  052%=      5-min Rain = 0
KGU1 171642Z 21012KT M03/M11 A3038 RMK A01 T10311113  RH  054%=      5-min Rain = 0
KGU1 171643Z 21012KT M03/M12 A3039 RMK A01 T10311116  RH  053%=      5-min Rain = 0
KGU1 171644Z 20010KT M03/M11 A3039 RMK A01 T10311109  RH  056%=      5-min Rain = 0
KGU1 171645Z 22009KT M03/M10 A3039 RMK A01 T10301096  RH  061%=      5-min Rain = 0
KGU1 171646Z 21010KT M03/M10 A3039 RMK A01 T10291095  RH  061%=      5-min Rain = 0
KGU1 171647Z 21013KT M03/M10 A3039 RMK A01 T10271099  RH  059%=      5-min Rain = 0
KGU1 171648Z 21011KT M03/M11 A3038 RMK A01 T10281112  RH  053%=      5-min Rain = 0
KGU1 171649Z 21011KT M03/M12 A3038 RMK A01 T10291118  RH  051%=      5-min Rain = 0
KGU1 171650Z 20010KT M03/M11 A3038 RMK A01 T10291109  RH  055%=      5-min Rain = 0
KGU1 171651Z 20012KT M03/M11 A3038 RMK A01 T10291105  RH  056%=      5-min Rain = 0
KGU1 171652Z 21011KT M03/M11 A3038 RMK A01 T10301113  RH  054%=      5-min Rain = 0
KGU1 171653Z 20010KT M03/M11 A3038 RMK A01 T10291113  RH  053%=      5-min Rain = 0
KGU1 171654Z 21010KT M03/M11 A3038 RMK A01 T10281110  RH  054%=      5-min Rain = 0
KGU1 171655Z 21010KT M03/M12 A3038 RMK A01 T10271117  RH  051%=      5-min Rain = 0
KGU1 171656Z 21007KT M03/M12 A3038 RMK A01 T10271117  RH  051%=      5-min Rain = 0
KGU1 171657Z 22008KT M02/M12 A3038 RMK A01 T10231116  RH  050%=      5-min Rain = 0
KGU1 171658Z 21011KT M02/M12 A3038 RMK A01 T10221115  RH  050%=      5-min Rain = 0
KGU1 171659Z 21011KT M02/M11 A3038 RMK A01 T10231114  RH  050%=      5-min Rain = 0
KGU1 171700Z 20011KT M02/M10 A3038 RMK A01 T10221102  RH  055%=      5-min Rain = 0
KGU1 171701Z 20012KT M02/M09 A3038 RMK A01 T10221092  RH  059%=      5-min Rain = 0
KGU1 171702Z 21011KT M02/M10 A3038 RMK A01 T10231098  RH  057%=      5-min Rain = 0
KGU1 171703Z 20011KT M02/M10 A3038 RMK A01 T10231097  RH  057%=      5-min Rain = 0
KGU1 171704Z 20011KT M02/M10 A3038 RMK A01 T10211101  RH  055%=      5-min Rain = 0
KGU1 171705Z 21011KT M02/M10 A3038 RMK A01 T10211102  RH  055%=      5-min Rain = 0
KGU1 171706Z 21011KT M02/M10 A3038 RMK A01 T10221104  RH  054%=      5-min Rain = 0
KGU1 171707Z 21010KT M02/M11 A3038 RMK A01 T10211105  RH  053%=      5-min Rain = 0
KGU1 171708Z 20008KT M02/M11 A3038 RMK A01 T10201110  RH  051%=      5-min Rain = 0
KGU1 171709Z 21011KT M02/M11 A3038 RMK A01 T10191108  RH  051%=      5-min Rain = 0
KGU1 171710Z 20009KT M02/M11 A3038 RMK A01 T10191108  RH  051%=      5-min Rain = 0
KGU1 171711Z 20012KT M02/M11 A3038 RMK A01 T10191109  RH  051%=      5-min Rain = 0
KGU1 171712Z 21011KT M02/M11 A3038 RMK A01 T10201105  RH  053%=      5-min Rain = 0
KGU1 171713Z 21010KT M02/M11 A3038 RMK A01 T10211111  RH  051%=      5-min Rain = 0
KGU1 171714Z 19011KT M02/M11 A3038 RMK A01 T10201109  RH  051%=      5-min Rain = 0
KGU1 171715Z 20012KT M02/M11 A3038 RMK A01 T10201106  RH  052%=      5-min Rain = 0
KGU1 171716Z 20013KT M02/M11 A3038 RMK A01 T10211105  RH  053%=      5-min Rain = 0
KGU1 171717Z 21013KT M02/M10 A3038 RMK A01 T10211103  RH  054%=      5-min Rain = 0
KGU1 171718Z 20010KT M02/M11 A3038 RMK A01 T10201107  RH  052%=      5-min Rain = 0
KGU1 171719Z 21009KT M02/M11 A3038 RMK A01 T10181110  RH  050%=      5-min Rain = 0
KGU1 171720Z 21009KT M02/M12 A3038 RMK A01 T10181115  RH  048%=      5-min Rain = 0
KGU1 171721Z 20011KT M02/M11 A3037 RMK A01 T10181110  RH  050%=      5-min Rain = 0
KGU1 171722Z 19009KT M02/M12 A3037 RMK A01 T10181117  RH  048%=      5-min Rain = 0
KGU1 171723Z 20009KT M02/M13 A3037 RMK A01 T10161131  RH  042%=      5-min Rain = 0
KGU1 171724Z 20009G14KT M02/M13 A3037 RMK A01 T10161130  RH  042%=      5-min Rain = 0
KGU1 171725Z 19010KT M02/M13 A3037 RMK A01 T10151129  RH  042%=      5-min Rain = 0
KGU1 171726Z 20009KT M02/M13 A3037 RMK A01 T10151129  RH  042%=      5-min Rain = 0
KGU1 171727Z 19008KT M02/M13 A3037 RMK A01 T10151127  RH  042%=      5-min Rain = 0
KGU1 171728Z 19010KT M01/M13 A3037 RMK A01 T10131126  RH  043%=      5-min Rain = 0
KGU1 171729Z 20013KT M01/M13 A3037 RMK A01 T10141127  RH  043%=      5-min Rain = 0
KGU1 171730Z 20011KT M02/M12 A3037 RMK A01 T10161124  RH  044%=      5-min Rain = 0
KGU1 171731Z 20008KT M02/M12 A3037 RMK A01 T10151120  RH  045%=      5-min Rain = 0
KGU1 171732Z 20010KT M01/M12 A3037 RMK A01 T10131117  RH  045%=      5-min Rain = 0
KGU1 171733Z 21009KT M01/M11 A3037 RMK A01 T10101112  RH  047%=      5-min Rain = 0
KGU1 171734Z 20010KT M01/M11 A3037 RMK A01 T10101111  RH  047%=      5-min Rain = 0
KGU1 171735Z 20010KT M01/M11 A3037 RMK A01 T10111110  RH  047%=      5-min Rain = 0
KGU1 171736Z 21011KT M01/M11 A3037 RMK A01 T10121112  RH  047%=      5-min Rain = 0
KGU1 171737Z 20010G15KT M01/M11 A3037 RMK A01 T10121109  RH  048%=      5-min Rain = 0
KGU1 171738Z 21011KT M01/M11 A3037 RMK A01 T10121111  RH  048%=      5-min Rain = 0
KGU1 171739Z 20011KT M01/M11 A3037 RMK A01 T10121111  RH  048%=      5-min Rain = 0
KGU1 171740Z 21010KT M01/M11 A3037 RMK A01 T10111108  RH  048%=      5-min Rain = 0
KGU1 171741Z 21009G14KT M01/M11 A3037 RMK A01 T10101106  RH  049%=      5-min Rain = 0
KGU1 171742Z 21012KT M01/M10 A3037 RMK A01 T10101102  RH  050%=      5-min Rain = 0
KGU1 171743Z 21012KT M01/M10 A3037 RMK A01 T10101102  RH  050%=      5-min Rain = 0
KGU1 171744Z 19011KT M01/M10 A3037 RMK A01 T10111102  RH  051%=      5-min Rain = 0
KGU1 171745Z 21010KT M01/M10 A3037 RMK A01 T10101101  RH  051%=      5-min Rain = 0
KGU1 171751Z 21010KT M01/M10 A3037 RMK A01 T10091095  RH  053%=      5-min Rain = 0
KGU1 171752Z 20011KT M01/M09 A3037 RMK A01 T10081094  RH  053%=      5-min Rain = 0
KGU1 171753Z 21012KT M01/M09 A3037 RMK A01 T10091091  RH  054%=      5-min Rain = 0
KGU1 171754Z 20009KT M01/M09 A3037 RMK A01 T10091090  RH  055%=      5-min Rain = 0
KGU1 171755Z 21010KT M01/M09 A3037 RMK A01 T10071092  RH  053%=      5-min Rain = 0
KGU1 171756Z 21012KT M01/M09 A3037 RMK A01 T10061090  RH  053%=      5-min Rain = 0
KGU1 171757Z 20011KT M01/M09 A3037 RMK A01 T10061089  RH  054%=      5-min Rain = 0
KGU1 171758Z 21012KT M01/M09 A3036 RMK A01 T10051092  RH  052%=      5-min Rain = 0
KGU1 171759Z 20010KT M01/M10 A3036 RMK A01 T10061096  RH  051%=      5-min Rain = 0
KGU1 171800Z 20012KT M01/M10 A3036 RMK A01 T10071096  RH  051%=      5-min Rain = 0
KGU1 171801Z 21010KT M01/M10 A3036 RMK A01 T10071097  RH  051%=      5-min Rain = 0
KGU1 171802Z 20008KT M01/M10 A3036 RMK A01 T10071096  RH  052%=      5-min Rain = 0
KGU1 171803Z 21011G17KT M01/M10 A3036 RMK A01 T10061095  RH  052%=      5-min Rain = 0
KGU1 171804Z 21013KT M01/M10 A3036 RMK A01 T10071096  RH  051%=      5-min Rain = 0
KGU1 171805Z 21009KT M01/M10 A3036 RMK A01 T10071096  RH  052%=      5-min Rain = 0
KGU1 171806Z 21011KT M01/M10 A3036 RMK A01 T10061096  RH  051%=      5-min Rain = 0
KGU1 171807Z 21011KT M01/M10 A3036 RMK A01 T10061098  RH  050%=      5-min Rain = 0
KGU1 171808Z 21010KT M01/M10 A3036 RMK A01 T10051097  RH  051%=      5-min Rain = 0
KGU1 171809Z 19009KT M00/M10 A3036 RMK A01 T10041097  RH  050%=      5-min Rain = 0
KGU1 171810Z 21012KT M00/M10 A3036 RMK A01 T10041098  RH  049%=      5-min Rain = 0
KGU1 171811Z 21008KT M00/M10 A3036 RMK A01 T10041098  RH  050%=      5-min Rain = 0
KGU1 171812Z 21008KT M00/M10 A3035 RMK A01 T10031096  RH  050%=      5-min Rain = 0
KGU1 171813Z 21010KT 00/10 A3035 RMK A01 T00-00-96  RH  049%=      5-min Rain = 0
KGU1 171814Z 21011KT 00/10 A3035 RMK A01 T00000-100  RH  048%=      5-min Rain = 0
KGU1 171815Z 20011KT M00/M10 A3035 RMK A01 T10011099  RH  048%=      5-min Rain = 0
KGU1 171816Z 20010KT M00/M10 A3035 RMK A01 T10011098  RH  049%=      5-min Rain = 0
KGU1 171817Z 20010KT 00/10 A3035 RMK A01 T00000-97  RH  048%=      5-min Rain = 0
KGU1 171818Z 21011KT 00/10 A3035 RMK A01 T00000-96  RH  049%=      5-min Rain = 0
KGU1 171819Z 21008KT 00/10 A3035 RMK A01 T00000-95  RH  049%=      5-min Rain = 0
KGU1 171820Z 21010KT 00/M10 A3035 RMK A01 T00021096  RH  048%=      5-min Rain = 0
KGU1 171821Z 21009KT 00/M09 A3035 RMK A01 T00031094  RH  049%=      5-min Rain = 0
KGU1 171822Z 20011KT 00/M10 A3035 RMK A01 T00031096  RH  048%=      5-min Rain = 0
KGU1 171823Z 21013KT 00/M10 A3034 RMK A01 T00011096  RH  049%=      5-min Rain = 0
KGU1 171824Z 21010KT 00/10 A3034 RMK A01 T00000-95  RH  049%=      5-min Rain = 0
KGU1 171825Z 21012KT 00/10 A3034 RMK A01 T00000-96  RH  049%=      5-min Rain = 0
KGU1 171826Z 21011KT 00/10 A3034 RMK A01 T00-00-95  RH  049%=      5-min Rain = 0
KGU1 171827Z 20011KT 00/M10 A3034 RMK A01 T00011095  RH  049%=      5-min Rain = 0
KGU1 171828Z 21012KT 00/M10 A3034 RMK A01 T00011095  RH  049%=      5-min Rain = 0
KGU1 171829Z 21013KT 00/M10 A3034 RMK A01 T00011096  RH  049%=      5-min Rain = 0
KGU1 171830Z 21010G15KT M00/M10 A3034 RMK A01 T10011095  RH  050%=      5-min Rain = 0
KGU1 171831Z 21012KT M00/M10 A3034 RMK A01 T10011095  RH  050%=      5-min Rain = 0
KGU1 171832Z 21011KT M00/M09 A3034 RMK A01 T10011094  RH  050%=      5-min Rain = 0
KGU1 171833Z 21015KT M00/M10 A3034 RMK A01 T10011096  RH  049%=      5-min Rain = 0
KGU1 171834Z 21015KT M00/M10 A3034 RMK A01 T10031096  RH  050%=      5-min Rain = 0
KGU1 171835Z 21013G18KT M00/M10 A3034 RMK A01 T10041095  RH  051%=      5-min Rain = 0
KGU1 171836Z 21014KT M00/M09 A3034 RMK A01 T10041094  RH  051%=      5-min Rain = 0
KGU1 171837Z 21011KT M00/M09 A3034 RMK A01 T10041093  RH  052%=      5-min Rain = 0
KGU1 171838Z 21013G18KT M00/M09 A3033 RMK A01 T10031093  RH  051%=      5-min Rain = 0
KGU1 171839Z 21016KT M00/M09 A3033 RMK A01 T10031093  RH  051%=      5-min Rain = 0
KGU1 171840Z 20012KT M00/M09 A3033 RMK A01 T10041093  RH  052%=      5-min Rain = 0
KGU1 171841Z 21012KT M00/M09 A3033 RMK A01 T10031093  RH  051%=      5-min Rain = 0
KGU1 171842Z 20013KT M00/M09 A3033 RMK A01 T10021093  RH  051%=      5-min Rain = 0
KGU1 171843Z 20012KT M00/M09 A3033 RMK A01 T10011093  RH  051%=      5-min Rain = 0
KGU1 171844Z 20013KT M00/M09 A3033 RMK A01 T10011093  RH  050%=      5-min Rain = 0
KGU1 171845Z 21013KT M00/M09 A3033 RMK A01 T10011094  RH  050%=      5-min Rain = 0
KGU1 171846Z 21012KT M00/M09 A3033 RMK A01 T10011094  RH  050%=      5-min Rain = 0
KGU1 171847Z 21010KT M00/M09 A3033 RMK A01 T10011094  RH  050%=      5-min Rain = 0
KGU1 171848Z 20011KT 00/09 A3033 RMK A01 T00-00-94  RH  050%=      5-min Rain = 0
KGU1 171849Z 21010KT 00/M09 A3033 RMK A01 T00011094  RH  050%=      5-min Rain = 0
KGU1 171850Z 20007KT 00/M09 A3033 RMK A01 T00041093  RH  049%=      5-min Rain = 0
KGU1 171851Z 21008KT 01/M09 A3033 RMK A01 T00061093  RH  048%=      5-min Rain = 0
KGU1 171852Z 20010KT 01/M10 A3032 RMK A01 T00081095  RH  047%=      5-min Rain = 0
KGU1 171853Z 21010KT 01/M10 A3032 RMK A01 T00091095  RH  046%=      5-min Rain = 0
KGU1 171854Z 21011KT 01/M10 A3032 RMK A01 T00091095  RH  046%=      5-min Rain = 0
KGU1 171855Z 21010KT 01/M09 A3032 RMK A01 T00091094  RH  047%=      5-min Rain = 0
KGU1 171856Z 22009KT 01/M09 A3032 RMK A01 T00091094  RH  046%=      5-min Rain = 0
KGU1 171857Z 20008KT 01/M09 A3032 RMK A01 T00121092  RH  046%=      5-min Rain = 0
KGU1 171858Z 23008KT 02/M09 A3032 RMK A01 T00161093  RH  045%=      5-min Rain = 0
KGU1 171859Z 22008KT 02/M10 A3032 RMK A01 T00181095  RH  043%=      5-min Rain = 0
KGU1 171900Z 22009KT 02/M10 A3032 RMK A01 T00171096  RH  044%=      5-min Rain = 0
KGU1 171901Z 21008G14KT 02/M10 A3032 RMK A01 T00171095  RH  044%=      5-min Rain = 0
KGU1 171902Z 22011KT 02/M10 A3032 RMK A01 T00171097  RH  043%=      5-min Rain = 0
KGU1 171903Z 22012KT 02/M10 A3032 RMK A01 T00161098  RH  043%=      5-min Rain = 0
KGU1 171904Z 21012KT 01/M10 A3032 RMK A01 T00121100  RH  043%=      5-min Rain = 0
KGU1 171905Z 21015KT 01/M10 A3032 RMK A01 T00101101  RH  044%=      5-min Rain = 0
KGU1 171906Z 20013KT 01/M10 A3032 RMK A01 T00091102  RH  044%=      5-min Rain = 0
KGU1 171907Z 22011KT 01/M10 A3032 RMK A01 T00081101  RH  045%=      5-min Rain = 0
KGU1 171908Z 21011KT 01/M10 A3032 RMK A01 T00081100  RH  045%=      5-min Rain = 0
KGU1 171909Z 21010KT 01/M10 A3032 RMK A01 T00081101  RH  044%=      5-min Rain = 0
KGU1 171910Z 22007KT 01/M10 A3032 RMK A01 T00081099  RH  045%=      5-min Rain = 0
KGU1 171911Z 22009KT 01/M10 A3032 RMK A01 T00111099  RH  044%=      5-min Rain = 0
KGU1 171912Z 21009G15KT 01/M10 A3032 RMK A01 T00141099  RH  043%=      5-min Rain = 0
KGU1 171913Z 20011KT 01/M10 A3032 RMK A01 T00141102  RH  042%=      5-min Rain = 0
KGU1 171914Z 21010KT 01/M10 A3031 RMK A01 T00131100  RH  043%=      5-min Rain = 0
KGU1 171915Z 20010KT 01/M10 A3031 RMK A01 T00131100  RH  043%=      5-min Rain = 0
KGU1 171916Z 21009KT 02/M10 A3031 RMK A01 T00151100  RH  043%=      5-min Rain = 0
KGU1 171917Z 19009KT 02/M10 A3031 RMK A01 T00181101  RH  042%=      5-min Rain = 0
KGU1 171918Z 19007KT 02/M10 A3031 RMK A01 T00181099  RH  042%=      5-min Rain = 0
KGU1 171919Z 21008KT 02/M10 A3031 RMK A01 T00201098  RH  042%=      5-min Rain = 0
KGU1 171920Z 21009KT 02/M10 A3031 RMK A01 T00201101  RH  041%=      5-min Rain = 0
KGU1 171921Z 23008KT 02/M10 A3031 RMK A01 T00191101  RH  041%=      5-min Rain = 0
KGU1 171922Z 20010KT 02/M10 A3031 RMK A01 T00181100  RH  042%=      5-min Rain = 0
KGU1 171923Z 21011KT 02/M10 A3031 RMK A01 T00161100  RH  042%=      5-min Rain = 0
KGU1 171924Z 20010KT 02/M10 A3031 RMK A01 T00161099  RH  043%=      5-min Rain = 0
KGU1 171925Z 20010KT 02/M10 A3031 RMK A01 T00151101  RH  042%=      5-min Rain = 0
KGU1 171926Z 20008G13KT 02/M10 A3031 RMK A01 T00151098  RH  043%=      5-min Rain = 0
KGU1 171927Z 20009KT 02/M10 A3031 RMK A01 T00171102  RH  042%=      5-min Rain = 0
KGU1 171928Z 20012KT 02/M10 A3031 RMK A01 T00171100  RH  042%=      5-min Rain = 0
KGU1 171929Z 21011KT 02/M10 A3031 RMK A01 T00161100  RH  042%=      5-min Rain = 0
KGU1 171930Z 20011KT 02/M10 A3031 RMK A01 T00161100  RH  042%=      5-min Rain = 0
KGU1 171931Z 20009KT 02/M10 A3031 RMK A01 T00151100  RH  043%=      5-min Rain = 0
KGU1 171932Z 21010KT 02/M10 A3031 RMK A01 T00151099  RH  043%=      5-min Rain = 0
KGU1 171933Z 21009KT 02/M10 A3031 RMK A01 T00161098  RH  043%=      5-min Rain = 0
KGU1 171934Z 20011KT 02/M10 A3031 RMK A01 T00171099  RH  042%=      5-min Rain = 0
KGU1 171935Z 20011KT 02/M10 A303 RMK A01 T00171098  RH  043%=      5-min Rain = 0
KGU1 171936Z 20010G15KT 02/M10 A303 RMK A01 T00161098  RH  043%=      5-min Rain = 0
KGU1 171937Z 20012KT 02/M10 A303 RMK A01 T00171098  RH  043%=      5-min Rain = 0
KGU1 171938Z 20007KT 02/M10 A303 RMK A01 T00161099  RH  043%=      5-min Rain = 0
KGU1 171939Z 21010KT 02/M10 A303 RMK A01 T00171097  RH  043%=      5-min Rain = 0
KGU1 171940Z 21007KT 02/M10 A303 RMK A01 T00171099  RH  042%=      5-min Rain = 0
KGU1 171941Z 21009KT 02/M10 A303 RMK A01 T00181098  RH  042%=      5-min Rain = 0
KGU1 171942Z 20008KT 02/M10 A303 RMK A01 T00181098  RH  043%=      5-min Rain = 0
KGU1 171943Z 20009KT 02/M10 A303 RMK A01 T00201097  RH  042%=      5-min Rain = 0
KGU1 171944Z 21011KT 02/M10 A303 RMK A01 T00221097  RH  042%=      5-min Rain = 0
KGU1 171945Z 21014KT 02/M10 A303 RMK A01 T00221099  RH  041%=      5-min Rain = 0
KGU1 171946Z 20013KT 02/M10 A303 RMK A01 T00201097  RH  042%=      5-min Rain = 0
KGU1 171947Z 21010KT 02/M10 A303 RMK A01 T00171095  RH  044%=      5-min Rain = 0
KGU1 171948Z 21011KT 02/M10 A303 RMK A01 T00181096  RH  043%=      5-min Rain = 0
KGU1 171949Z 20012KT 02/M10 A303 RMK A01 T00191095  RH  043%=      5-min Rain = 0
KGU1 171950Z 20011KT 02/M10 A303 RMK A01 T00191095  RH  043%=      5-min Rain = 0
KGU1 171951Z 21011KT 02/M10 A303 RMK A01 T00191095  RH  043%=      5-min Rain = 0
KGU1 171952Z 21011KT 02/M10 A303 RMK A01 T00181095  RH  044%=      5-min Rain = 0
KGU1 171953Z 20011KT 02/M09 A303 RMK A01 T00171094  RH  044%=      5-min Rain = 0
KGU1 171954Z 19013KT 02/M10 A303 RMK A01 T00161095  RH  044%=      5-min Rain = 0
KGU1 171955Z 20011KT 02/M09 A303 RMK A01 T00151093  RH  045%=      5-min Rain = 0
KGU1 171956Z 21008KT 02/M09 A303 RMK A01 T00161092  RH  045%=      5-min Rain = 0
KGU1 171957Z 21008KT 02/M09 A303 RMK A01 T00191094  RH  044%=      5-min Rain = 0
KGU1 171958Z 21011KT 02/M09 A303 RMK A01 T00191093  RH  044%=      5-min Rain = 0
KGU1 171959Z 21011KT 02/M09 A303 RMK A01 T00181094  RH  044%=      5-min Rain = 0
KGU1 172000Z 20009KT 02/M09 A303 RMK A01 T00181093  RH  044%=      5-min Rain = 0
KGU1 172001Z 20006KT 02/M09 A303 RMK A01 T00201091  RH  044%=      5-min Rain = 0
KGU1 172002Z 21010KT 02/M09 A303 RMK A01 T00211093  RH  043%=      5-min Rain = 0
KGU1 172003Z 22009KT 02/M09 A303 RMK A01 T00201092  RH  044%=      5-min Rain = 0
KGU1 172004Z 20008KT 02/M09 A303 RMK A01 T00201093  RH  044%=      5-min Rain = 0
KGU1 172005Z 20010KT 02/M09 A303 RMK A01 T00201092  RH  044%=      5-min Rain = 0
KGU1 172006Z 21008KT 02/M09 A303 RMK A01 T00201091  RH  044%=      5-min Rain = 0
KGU1 172007Z 21008KT 02/M09 A303 RMK A01 T00211092  RH  044%=      5-min Rain = 0
KGU1 172008Z 21011KT 02/M09 A303 RMK A01 T00211092  RH  043%=      5-min Rain = 0
KGU1 172009Z 21009KT 02/M09 A303 RMK A01 T00211092  RH  043%=      5-min Rain = 0
KGU1 172010Z 21010KT 02/M09 A303 RMK A01 T00221090  RH  044%=      5-min Rain = 0
KGU1 172011Z 21010KT 02/M09 A303 RMK A01 T00221092  RH  043%=      5-min Rain = 0
KGU1 172012Z 21010KT 02/M09 A303 RMK A01 T00211091  RH  044%=      5-min Rain = 0
KGU1 172013Z 21007KT 02/M09 A303 RMK A01 T00201092  RH  044%=      5-min Rain = 0
KGU1 172014Z 20007KT 02/M09 A303 RMK A01 T00201090  RH  045%=      5-min Rain = 0
KGU1 172015Z 20007KT 02/M09 A303 RMK A01 T00221090  RH  044%=      5-min Rain = 0
KGU1 172016Z 20010KT 02/M09 A303 RMK A01 T00241092  RH  043%=      5-min Rain = 0
KGU1 172017Z 21009KT 02/M09 A303 RMK A01 T00241091  RH  043%=      5-min Rain = 0
KGU1 172018Z 21008KT 03/M09 A303 RMK A01 T00251090  RH  043%=      5-min Rain = 0
KGU1 172019Z 21009KT 03/M09 A303 RMK A01 T00261091  RH  042%=      5-min Rain = 0
KGU1 172020Z 21008KT 03/M09 A303 RMK A01 T00271090  RH  042%=      5-min Rain = 0
KGU1 172021Z 20007KT 03/M09 A303 RMK A01 T00261091  RH  042%=      5-min Rain = 0
KGU1 172022Z 21009KT 02/M09 A303 RMK A01 T00241091  RH  043%=      5-min Rain = 0
KGU1 172023Z 21010KT 02/M09 A303 RMK A01 T00231089  RH  044%=      5-min Rain = 0
KGU1 172024Z 20009KT 02/M09 A303 RMK A01 T00211089  RH  045%=      5-min Rain = 0
KGU1 172025Z 20009KT 02/M09 A303 RMK A01 T00211089  RH  045%=      5-min Rain = 0
KGU1 172026Z 21009KT 02/M09 A303 RMK A01 T00201088  RH  045%=      5-min Rain = 0
KGU1 172027Z 21008KT 02/M09 A303 RMK A01 T00191089  RH  045%=      5-min Rain = 0
KGU1 172028Z 21008KT 02/M09 A303 RMK A01 T00191090  RH  045%=      5-min Rain = 0
KGU1 172029Z 20007KT 02/M09 A303 RMK A01 T00181089  RH  045%=      5-min Rain = 0
KGU1 172030Z 20007KT 02/M09 A303 RMK A01 T00181090  RH  045%=      5-min Rain = 0
KGU1 172031Z 20007KT 02/M09 A303 RMK A01 T00171090  RH  045%=      5-min Rain = 0
KGU1 172032Z 21008KT 02/M09 A303 RMK A01 T00181090  RH  045%=      5-min Rain = 0
KGU1 172033Z 21007KT 02/M09 A303 RMK A01 T00191089  RH  045%=      5-min Rain = 0
KGU1 172034Z 21009KT 02/M09 A303 RMK A01 T00191089  RH  045%=      5-min Rain = 0
KGU1 172035Z 20010KT 02/M09 A303 RMK A01 T00171089  RH  046%=      5-min Rain = 0
KGU1 172036Z 21008KT 02/M09 A303 RMK A01 T00151089  RH  047%=      5-min Rain = 0
KGU1 172037Z 20008KT 01/M09 A303 RMK A01 T00141088  RH  047%=      5-min Rain = 0
KGU1 172038Z 19007KT 01/M09 A303 RMK A01 T00141089  RH  047%=      5-min Rain = 0
KGU1 172039Z 19005KT 02/M09 A303 RMK A01 T00151088  RH  047%=      5-min Rain = 0
KGU1 172040Z 20008KT 02/M09 A303 RMK A01 T00161089  RH  046%=      5-min Rain = 0
KGU1 172041Z 22009KT 02/M09 A303 RMK A01 T00151088  RH  047%=      5-min Rain = 0
KGU1 172042Z 22008KT 01/M09 A303 RMK A01 T00131087  RH  048%=      5-min Rain = 0
KGU1 172043Z 21008KT 01/M09 A303 RMK A01 T00121087  RH  048%=      5-min Rain = 0
KGU1 172044Z 20006KT 01/M09 A303 RMK A01 T00121087  RH  048%=      5-min Rain = 0
KGU1 172045Z 21008KT 01/M09 A303 RMK A01 T00121087  RH  048%=      5-min Rain = 0
KGU1 172046Z 21009KT 01/M09 A303 RMK A01 T00131087  RH  048%=      5-min Rain = 0
KGU1 172047Z 21012KT 01/M09 A303 RMK A01 T00131088  RH  048%=      5-min Rain = 0
KGU1 172048Z 20009KT 01/M09 A303 RMK A01 T00111088  RH  048%=      5-min Rain = 0
KGU1 172049Z 21008KT 01/M09 A303 RMK A01 T00111087  RH  049%=      5-min Rain = 0
KGU1 172050Z 20008KT 01/M09 A303 RMK A01 T00111088  RH  048%=      5-min Rain = 0
KGU1 172051Z 21007KT 01/M09 A303 RMK A01 T00111088  RH  048%=      5-min Rain = 0
KGU1 172052Z 22007KT 01/M09 A303 RMK A01 T00111088  RH  048%=      5-min Rain = 0
KGU1 172053Z 21007KT 01/M09 A303 RMK A01 T00111088  RH  048%=      5-min Rain = 0
KGU1 172054Z 20008KT 01/M09 A303 RMK A01 T00111088  RH  048%=      5-min Rain = 0
KGU1 172055Z 21008KT 01/M09 A303 RMK A01 T00101088  RH  048%=      5-min Rain = 0
KGU1 172056Z 20008KT 01/M09 A303 RMK A01 T00101088  RH  049%=      5-min Rain = 0
KGU1 172057Z 21006KT 01/M09 A303 RMK A01 T00101088  RH  049%=      5-min Rain = 0
KGU1 172058Z 20007KT 01/M09 A303 RMK A01 T00111087  RH  049%=      5-min Rain = 0
KGU1 172059Z 21006KT 01/M09 A303 RMK A01 T00111088  RH  048%=      5-min Rain = 0
KGU1 172100Z 20004KT 01/M09 A303 RMK A01 T00111087  RH  049%=      5-min Rain = 0
KGU1 172101Z 20004KT 01/M09 A303 RMK A01 T00121086  RH  048%=      5-min Rain = 0
KGU1 172102Z 20004KT 01/M09 A303 RMK A01 T00141088  RH  047%=      5-min Rain = 0
KGU1 172103Z 21004KT 02/M09 A303 RMK A01 T00151088  RH  047%=      5-min Rain = 0
KGU1 172104Z 20003KT 02/M09 A303 RMK A01 T00171088  RH  046%=      5-min Rain = 0
KGU1 172105Z 21003KT 02/M09 A303 RMK A01 T00181088  RH  046%=      5-min Rain = 0
KGU1 172106Z 20004KT 02/M09 A303 RMK A01 T00181087  RH  046%=      5-min Rain = 0
KGU1 172107Z 20004KT 02/M09 A303 RMK A01 T00191087  RH  046%=      5-min Rain = 0
KGU1 172108Z 19001KT 02/M09 A303 RMK A01 T00201087  RH  046%=      5-min Rain = 0
KGU1 172109Z 13000KT 02/M09 A303 RMK A01 T00221086  RH  045%=      5-min Rain = 0
KGU1 172110Z 00000KT 02/M09 A303 RMK A01 T00221088  RH  044%=      5-min Rain = 0
KGU1 172111Z 20002KT 02/M09 A303 RMK A01 T00211089  RH  044%=      5-min Rain = 0
KGU1 172112Z 19003KT 02/M09 A303 RMK A01 T00221088  RH  045%=      5-min Rain = 0
KGU1 172113Z 18003KT 02/M09 A303 RMK A01 T00221088  RH  045%=      5-min Rain = 0
KGU1 172114Z 18004KT 02/M09 A303 RMK A01 T00211087  RH  045%=      5-min Rain = 0
KGU1 172115Z 21005KT 02/M09 A303 RMK A01 T00221087  RH  045%=      5-min Rain = 0
KGU1 172116Z 20003KT 02/M09 A303 RMK A01 T00221089  RH  044%=      5-min Rain = 0
KGU1 172117Z 23001KT 02/M09 A303 RMK A01 T00221089  RH  044%=      5-min Rain = 0
KGU1 172118Z 23000KT 02/M09 A303 RMK A01 T00221088  RH  044%=      5-min Rain = 0
KGU1 172119Z 16002KT 02/M09 A303 RMK A01 T00231088  RH  044%=      5-min Rain = 0
KGU1 172120Z 22002KT 03/M09 A303 RMK A01 T00251088  RH  044%=      5-min Rain = 0
KGU1 172121Z 18004KT 03/M09 A303 RMK A01 T00251086  RH  044%=      5-min Rain = 0
KGU1 172122Z 12005KT 03/M09 A303 RMK A01 T00251087  RH  044%=      5-min Rain = 0
KGU1 172123Z 07002KT 03/M09 A303 RMK A01 T00251089  RH  043%=      5-min Rain = 0
KGU1 172124Z 11002KT 02/M09 A303 RMK A01 T00241090  RH  043%=      5-min Rain = 0
KGU1 172125Z 11003KT 03/M09 A303 RMK A01 T00251089  RH  043%=      5-min Rain = 0
KGU1 172126Z 09005KT 03/M09 A303 RMK A01 T00261090  RH  043%=      5-min Rain = 0
KGU1 172127Z 12004KT 03/M09 A303 RMK A01 T00261088  RH  043%=      5-min Rain = 0
KGU1 172128Z 13001KT 03/M09 A303 RMK A01 T00281087  RH  043%=      5-min Rain = 0
KGU1 172129Z 03003KT 03/M09 A303 RMK A01 T00291088  RH  042%=      5-min Rain = 0
KGU1 172130Z 14003KT 03/M09 A303 RMK A01 T00311089  RH  042%=      5-min Rain = 0
KGU1 172131Z 10005KT 03/M09 A303 RMK A01 T00311089  RH  041%=      5-min Rain = 0
KGU1 172132Z 07002KT 03/M09 A303 RMK A01 T00311090  RH  041%=      5-min Rain = 0
KGU1 172133Z 02002KT 03/M09 A303 RMK A01 T00301090  RH  042%=      5-min Rain = 0
KGU1 172134Z 34002KT 03/M09 A303 RMK A01 T00291089  RH  042%=      5-min Rain = 0
KGU1 172135Z 00005KT 03/M09 A303 RMK A01 T00281088  RH  043%=      5-min Rain = 0
KGU1 172136Z 03006KT 03/M09 A303 RMK A01 T00281089  RH  042%=      5-min Rain = 0
KGU1 172137Z 34005KT 03/M09 A303 RMK A01 T00271089  RH  043%=      5-min Rain = 0
KGU1 172138Z 00005KT 03/M09 A303 RMK A01 T00271089  RH  043%=      5-min Rain = 0
KGU1 172139Z 02006KT 03/M09 A303 RMK A01 T00271088  RH  043%=      5-min Rain = 0
KGU1 172140Z 29005KT 03/M09 A303 RMK A01 T00261090  RH  043%=      5-min Rain = 0
KGU1 172141Z 25005KT 03/M09 A303 RMK A01 T00251090  RH  043%=      5-min Rain = 0
KGU1 172142Z 28001KT 02/M09 A303 RMK A01 T00241090  RH  043%=      5-min Rain = 0
KGU1 172143Z 35003KT 02/M09 A303 RMK A01 T00241088  RH  044%=      5-min Rain = 0
KGU1 172144Z 07003G8KT 03/M09 A303 RMK A01 T00261086  RH  044%=      5-min Rain = 0
KGU1 172145Z 14004KT 03/M09 A303 RMK A01 T00281089  RH  043%=      5-min Rain = 0
KGU1 172146Z 13002KT 03/M09 A303 RMK A01 T00271088  RH  043%=      5-min Rain = 0
KGU1 172147Z 05004KT 03/M09 A303 RMK A01 T00271088  RH  043%=      5-min Rain = 0
KGU1 172148Z 05007KT 03/M09 A303 RMK A01 T00281090  RH  042%=      5-min Rain = 0
KGU1 172149Z 07007KT 03/M09 A303 RMK A01 T00271090  RH  042%=      5-min Rain = 0
KGU1 172150Z 06005KT 03/M09 A303 RMK A01 T00261089  RH  043%=      5-min Rain = 0
KGU1 172151Z 08006KT 03/M09 A303 RMK A01 T00261088  RH  043%=      5-min Rain = 0
KGU1 172152Z 10005KT 03/M09 A303 RMK A01 T00271089  RH  043%=      5-min Rain = 0
KGU1 172153Z 08005KT 03/M09 A303 RMK A01 T00271089  RH  042%=      5-min Rain = 0
KGU1 172154Z 07006KT 03/M09 A303 RMK A01 T00261089  RH  043%=      5-min Rain = 0
KGU1 172155Z 06006KT 03/M09 A303 RMK A01 T00261089  RH  043%=      5-min Rain = 0
KGU1 172156Z 07006KT 03/M09 A303 RMK A01 T00251089  RH  043%=      5-min Rain = 0
KGU1 172157Z 08006KT 03/M09 A303 RMK A01 T00251088  RH  043%=      5-min Rain = 0
KGU1 172158Z 06006KT 03/M09 A303 RMK A01 T00261089  RH  043%=      5-min Rain = 0
KGU1 172159Z 09005KT 03/M09 A303 RMK A01 T00261089  RH  043%=      5-min Rain = 0
KGU1 172200Z 12004KT 03/M09 A303 RMK A01 T00261088  RH  043%=      5-min Rain = 0
KGU1 172201Z 14005KT 03/M09 A303 RMK A01 T00261086  RH  044%=      5-min Rain = 0
KGU1 172202Z 10003KT 03/M09 A303 RMK A01 T00261087  RH  043%=      5-min Rain = 0
KGU1 172203Z 11003KT 03/M09 A303 RMK A01 T00271087  RH  043%=      5-min Rain = 0
KGU1 172204Z 13002KT 03/M09 A303 RMK A01 T00271087  RH  043%=      5-min Rain = 0
KGU1 172205Z 13002KT 03/M09 A303 RMK A01 T00271087  RH  043%=      5-min Rain = 0
KGU1 172206Z 22002KT 03/M09 A303 RMK A01 T00271087  RH  043%=      5-min Rain = 0
KGU1 172207Z 23001KT 03/M09 A303 RMK A01 T00261088  RH  043%=      5-min Rain = 0
KGU1 172208Z 00000KT 03/M09 A303 RMK A01 T00271088  RH  043%=      5-min Rain = 0
KGU1 172209Z 18001KT 03/M09 A303 RMK A01 T00271087  RH  043%=      5-min Rain = 0
KGU1 172210Z 18002KT 03/M09 A303 RMK A01 T00261088  RH  043%=      5-min Rain = 0
KGU1 172211Z 17001KT 03/M09 A303 RMK A01 T00251087  RH  044%=      5-min Rain = 0
KGU1 172212Z 05004KT 03/M09 A303 RMK A01 T00251087  RH  044%=      5-min Rain = 0
KGU1 172213Z 02007G12KT 03/M09 A303 RMK A01 T00251087  RH  044%=      5-min Rain = 0
KGU1 172214Z 10005KT 03/M09 A3029 RMK A01 T00261086  RH  044%=      5-min Rain = 0
KGU1 172215Z 11006KT 03/M09 A303 RMK A01 T00251087  RH  044%=      5-min Rain = 0
KGU1 172216Z 13005KT 02/M09 A303 RMK A01 T00241087  RH  044%=      5-min Rain = 0
KGU1 172217Z 12003KT 02/M09 A303 RMK A01 T00221087  RH  045%=      5-min Rain = 0
KGU1 172218Z 15004KT 02/M09 A303 RMK A01 T00221086  RH  045%=      5-min Rain = 0
KGU1 172219Z 07003KT 02/M09 A303 RMK A01 T00221086  RH  045%=      5-min Rain = 0
KGU1 172220Z 06005KT 02/M09 A303 RMK A01 T00221088  RH  044%=      5-min Rain = 0
KGU1 172221Z 04005KT 02/M09 A303 RMK A01 T00221088  RH  044%=      5-min Rain = 0
KGU1 172222Z 05006KT 02/M09 A303 RMK A01 T00221087  RH  045%=      5-min Rain = 0
KGU1 172223Z 06005KT 02/M09 A303 RMK A01 T00231087  RH  044%=      5-min Rain = 0
KGU1 172224Z 06005KT 02/M09 A303 RMK A01 T00231089  RH  044%=      5-min Rain = 0
KGU1 172225Z 07005KT 02/M09 A303 RMK A01 T00231088  RH  044%=      5-min Rain = 0
KGU1 172226Z 08006KT 02/M09 A303 RMK A01 T00221088  RH  044%=      5-min Rain = 0
KGU1 172227Z 06007KT 02/M09 A303 RMK A01 T00221088  RH  045%=      5-min Rain = 0
KGU1 172228Z 07007KT 02/M09 A303 RMK A01 T00221088  RH  045%=      5-min Rain = 0
KGU1 172229Z 08007KT 02/M09 A303 RMK A01 T00211089  RH  045%=      5-min Rain = 0
KGU1 172230Z 08006KT 02/M09 A303 RMK A01 T00201088  RH  045%=      5-min Rain = 0
KGU1 172231Z 09005KT 02/M09 A303 RMK A01 T00201088  RH  045%=      5-min Rain = 0
KGU1 172232Z 07007KT 02/M09 A303 RMK A01 T00201088  RH  045%=      5-min Rain = 0
KGU1 172233Z 07006KT 02/M09 A303 RMK A01 T00191088  RH  045%=      5-min Rain = 0
KGU1 172234Z 06007KT 02/M09 A303 RMK A01 T00191089  RH  045%=      5-min Rain = 0
KGU1 172235Z 08007KT 02/M09 A303 RMK A01 T00181088  RH  046%=      5-min Rain = 0
KGU1 172236Z 08006KT 02/M09 A303 RMK A01 T00181088  RH  046%=      5-min Rain = 0
KGU1 172237Z 06005KT 02/M09 A303 RMK A01 T00181088  RH  046%=      5-min Rain = 0
KGU1 172238Z 05004KT 02/M09 A303 RMK A01 T00191087  RH  046%=      5-min Rain = 0
KGU1 172239Z 07006KT 02/M09 A303 RMK A01 T00201088  RH  045%=      5-min Rain = 0
KGU1 172240Z 08006KT 02/M09 A303 RMK A01 T00191087  RH  046%=      5-min Rain = 0
KGU1 172241Z 06006KT 02/M09 A303 RMK A01 T00191088  RH  046%=      5-min Rain = 0
KGU1 172242Z 07006KT 02/M09 A303 RMK A01 T00181088  RH  046%=      5-min Rain = 0
KGU1 172243Z 06005KT 02/M09 A303 RMK A01 T00181087  RH  046%=      5-min Rain = 0
KGU1 172244Z 07006KT 02/M09 A303 RMK A01 T00181087  RH  046%=      5-min Rain = 0
KGU1 172245Z 06007KT 02/M09 A303 RMK A01 T00171087  RH  046%=      5-min Rain = 0
KGU1 172246Z 05007KT 02/M09 A303 RMK A01 T00171087  RH  046%=      5-min Rain = 0
KGU1 172247Z 05007KT 02/M09 A303 RMK A01 T00171088  RH  046%=      5-min Rain = 0
KGU1 172248Z 05006KT 02/M09 A303 RMK A01 T00161088  RH  046%=      5-min Rain = 0
KGU1 172249Z 04006KT 02/M09 A303 RMK A01 T00161088  RH  047%=      5-min Rain = 0
KGU1 172250Z 06006KT 02/M09 A303 RMK A01 T00161087  RH  047%=      5-min Rain = 0
KGU1 172251Z 06005KT 02/M09 A303 RMK A01 T00171087  RH  047%=      5-min Rain = 0
KGU1 172252Z 05006KT 02/M09 A303 RMK A01 T00161088  RH  046%=      5-min Rain = 0
KGU1 172253Z 06009KT 02/M09 A3029 RMK A01 T00151088  RH  047%=      5-min Rain = 0
KGU1 172254Z 06008KT 02/M09 A303 RMK A01 T00151088  RH  047%=      5-min Rain = 0
KGU1 172255Z 06008KT 01/M09 A3029 RMK A01 T00141088  RH  047%=      5-min Rain = 0
KGU1 172256Z 06007KT 01/M09 A303 RMK A01 T00141088  RH  047%=      5-min Rain = 0
KGU1 172257Z 05007KT 01/M09 A303 RMK A01 T00141088  RH  047%=      5-min Rain = 0
KGU1 172258Z 06007KT 01/M09 A3029 RMK A01 T00141088  RH  047%=      5-min Rain = 0
KGU1 172259Z 06006KT 01/M09 A3029 RMK A01 T00131088  RH  047%=      5-min Rain = 0
KGU1 172300Z 05007KT 01/M09 A3029 RMK A01 T00141087  RH  048%=      5-min Rain = 0
KGU1 172301Z 04007KT 01/M09 A3029 RMK A01 T00141088  RH  047%=      5-min Rain = 0
KGU1 172302Z 06007KT 01/M09 A3029 RMK A01 T00141088  RH  047%=      5-min Rain = 0
KGU1 172303Z 07006KT 01/M09 A3029 RMK A01 T00131088  RH  047%=      5-min Rain = 0
KGU1 172304Z 06006KT 01/M09 A3029 RMK A01 T00131088  RH  048%=      5-min Rain = 0
KGU1 172305Z 05006KT 01/M09 A3029 RMK A01 T00131088  RH  047%=      5-min Rain = 0
KGU1 172306Z 05007KT 01/M09 A3029 RMK A01 T00131088  RH  047%=      5-min Rain = 0
KGU1 172307Z 05006KT 01/M09 A3029 RMK A01 T00131088  RH  047%=      5-min Rain = 0
KGU1 172308Z 06007KT 01/M09 A3029 RMK A01 T00131088  RH  048%=      5-min Rain = 0
KGU1 172309Z 06008KT 01/M09 A3029 RMK A01 T00131089  RH  047%=      5-min Rain = 0
KGU1 172310Z 07007KT 01/M09 A3029 RMK A01 T00121088  RH  048%=      5-min Rain = 0
KGU1 172311Z 06006KT 01/M09 A3029 RMK A01 T00121087  RH  048%=      5-min Rain = 0
KGU1 172312Z 05007KT 01/M09 A3029 RMK A01 T00121088  RH  048%=      5-min Rain = 0
KGU1 172313Z 06005KT 01/M09 A3029 RMK A01 T00121088  RH  048%=      5-min Rain = 0
KGU1 172314Z 06007KT 01/M09 A3029 RMK A01 T00121088  RH  048%=      5-min Rain = 0
KGU1 172315Z 05007KT 01/M09 A3029 RMK A01 T00121088  RH  048%=      5-min Rain = 0
KGU1 172316Z 06006KT 01/M09 A3029 RMK A01 T00121088  RH  048%=      5-min Rain = 0
KGU1 172317Z 07006KT 01/M09 A3029 RMK A01 T00121088  RH  048%=      5-min Rain = 0
KGU1 172318Z 06007KT 01/M09 A3029 RMK A01 T00121088  RH  048%=      5-min Rain = 0
KGU1 172319Z 06006KT 01/M09 A3029 RMK A01 T00121088  RH  048%=      5-min Rain = 0
KGU1 172320Z 06006KT 01/M09 A3029 RMK A01 T00111088  RH  048%=      5-min Rain = 0
KGU1 172321Z 04007KT 01/M09 A3029 RMK A01 T00111087  RH  048%=      5-min Rain = 0
KGU1 172322Z 05007KT 01/M09 A3029 RMK A01 T00111088  RH  048%=      5-min Rain = 0
KGU1 172323Z 05006KT 01/M09 A3029 RMK A01 T00101087  RH  049%=      5-min Rain = 0
KGU1 172324Z 05009KT 01/M09 A3029 RMK A01 T00101087  RH  049%=      5-min Rain = 0
KGU1 172325Z 05006KT 01/M09 A3029 RMK A01 T00101087  RH  049%=      5-min Rain = 0
KGU1 172326Z 05007KT 01/M09 A3029 RMK A01 T00101087  RH  049%=      5-min Rain = 0
KGU1 172327Z 06007KT 01/M09 A3029 RMK A01 T00101088  RH  049%=      5-min Rain = 0
KGU1 172328Z 06008KT 01/M09 A3029 RMK A01 T00101090  RH  048%=      5-min Rain = 0
KGU1 172329Z 06008KT 01/M09 A3029 RMK A01 T00091091  RH  048%=      5-min Rain = 0
KGU1 172330Z 05007KT 01/M09 A3029 RMK A01 T00091090  RH  048%=      5-min Rain = 0
KGU1 172331Z 05008KT 01/M09 A3029 RMK A01 T00091090  RH  048%=      5-min Rain = 0
KGU1 172332Z 05008KT 01/M09 A3029 RMK A01 T00091089  RH  049%=      5-min Rain = 0
KGU1 172333Z 05009KT 01/M09 A3029 RMK A01 T00091088  RH  049%=      5-min Rain = 0
KGU1 172334Z 04009KT 01/M09 A3029 RMK A01 T00081089  RH  049%=      5-min Rain = 0
KGU1 172335Z 05009KT 01/M09 A3029 RMK A01 T00081090  RH  049%=      5-min Rain = 0
KGU1 172336Z 06008KT 01/M09 A3029 RMK A01 T00071090  RH  049%=      5-min Rain = 0
KGU1 172337Z 05008KT 01/M09 A3029 RMK A01 T00071094  RH  047%=      5-min Rain = 0
KGU1 172338Z 05010KT 01/M10 A3029 RMK A01 T00061098  RH  046%=      5-min Rain = 0
KGU1 172339Z 04010KT 01/M10 A3029 RMK A01 T00061100  RH  046%=      5-min Rain = 0
KGU1 172340Z 04008KT 01/M10 A3029 RMK A01 T00051100  RH  046%=      5-min Rain = 0
KGU1 172341Z 05008KT 01/M10 A3029 RMK A01 T00051101  RH  046%=      5-min Rain = 0
KGU1 172342Z 05007KT 00/M10 A3029 RMK A01 T00041103  RH  045%=      5-min Rain = 0
KGU1 172343Z 04009KT 00/M11 A3029 RMK A01 T00041106  RH  044%=      5-min Rain = 0
KGU1 172344Z 05009KT 00/M11 A3029 RMK A01 T00031108  RH  044%=      5-min Rain = 0
KGU1 172345Z 05010KT 00/M11 A3029 RMK A01 T00031110  RH  043%=      5-min Rain = 0
KGU1 172346Z 04010KT 00/M11 A3029 RMK A01 T00021113  RH  042%=      5-min Rain = 0
KGU1 172347Z 04012KT 00/M11 A3029 RMK A01 T00021113  RH  042%=      5-min Rain = 0
KGU1 172348Z 05010KT 00/M11 A3029 RMK A01 T00011113  RH  042%=      5-min Rain = 0
KGU1 172349Z 05010KT 00/M11 A3029 RMK A01 T00011113  RH  043%=      5-min Rain = 0
KGU1 172350Z 04008KT 00/11 A3029 RMK A01 T00000-114  RH  042%=      5-min Rain = 0
KGU1 172351Z 04007KT 00/11 A3029 RMK A01 T00-00-114  RH  042%=      5-min Rain = 0
KGU1 172352Z 05008KT 00/12 A3029 RMK A01 T00-00-116  RH  042%=      5-min Rain = 0
KGU1 172353Z 05010KT M00/M12 A3029 RMK A01 T10011119  RH  041%=      5-min Rain = 0
KGU1 172354Z 05011KT M00/M12 A3029 RMK A01 T10011122  RH  040%=      5-min Rain = 0
KGU1 172355Z 05009KT M00/M12 A3029 RMK A01 T10021121  RH  041%=      5-min Rain = 0
KGU1 172356Z 05008KT M00/M12 A3029 RMK A01 T10031122  RH  041%=      5-min Rain = 0
KGU1 172357Z 05008KT M00/M12 A3029 RMK A01 T10031123  RH  041%=      5-min Rain = 0
KGU1 172358Z 05008KT M00/M12 A3029 RMK A01 T10031123  RH  040%=      5-min Rain = 0
KGU1 172359Z 05007KT M00/M12 A3029 RMK A01 T10041124  RH  040%=      5-min Rain = 0
KGU1 180000Z 05009KT M00/M13 A3029 RMK A01 T10041125  RH  040%=      5-min Rain = 0
KGU1 180001Z 05008KT M01/M13 A3029 RMK A01 T10051125  RH  040%=      5-min Rain = 0
KGU1 180002Z 05009KT M01/M13 A3029 RMK A01 T10051126  RH  040%=      5-min Rain = 0
KGU1 180003Z 05008KT M01/M13 A3029 RMK A01 T10051126  RH  040%=      5-min Rain = 0
KGU1 180004Z 04008KT M01/M13 A3029 RMK A01 T10051127  RH  040%=      5-min Rain = 0
KGU1 180005Z 05008KT M01/M13 A3029 RMK A01 T10061127  RH  040%=      5-min Rain = 0
KGU1 180006Z 05008KT M01/M13 A3029 RMK A01 T10061127  RH  040%=      5-min Rain = 0
KGU1 180007Z 04010KT M01/M13 A3029 RMK A01 T10061128  RH  040%=      5-min Rain = 0
KGU1 180008Z 04009KT M01/M13 A3029 RMK A01 T10061129  RH  040%=      5-min Rain = 0
KGU1 180009Z 04008KT M01/M13 A3029 RMK A01 T10071129  RH  040%=      5-min Rain = 0
KGU1 180010Z 04008KT M01/M13 A3029 RMK A01 T10071131  RH  039%=      5-min Rain = 0
KGU1 180011Z 04008KT M01/M13 A3029 RMK A01 T10071131  RH  039%=      5-min Rain = 0
KGU1 180012Z 05008KT M01/M13 A3029 RMK A01 T10081131  RH  039%=      5-min Rain = 0
KGU1 180013Z 05010KT M01/M13 A3029 RMK A01 T10081132  RH  039%=      5-min Rain = 0
KGU1 180014Z 04009KT M01/M13 A3029 RMK A01 T10081133  RH  039%=      5-min Rain = 0
KGU1 180015Z 04009KT M01/M13 A3029 RMK A01 T10091133  RH  039%=      5-min Rain = 0
KGU1 180016Z 05009KT M01/M13 A3029 RMK A01 T10091134  RH  039%=      5-min Rain = 0
KGU1 180017Z 05010KT M01/M14 A3029 RMK A01 T10091135  RH  038%=      5-min Rain = 0
KGU1 180018Z 05009KT M01/M14 A3029 RMK A01 T10101136  RH  038%=      5-min Rain = 0
KGU1 180019Z 05009KT M01/M14 A3029 RMK A01 T10101136  RH  038%=      5-min Rain = 0
KGU1 180020Z 04009KT M01/M14 A3029 RMK A01 T10101137  RH  038%=      5-min Rain = 0
KGU1 180021Z 05009KT M01/M14 A3029 RMK A01 T10111138  RH  038%=      5-min Rain = 0
KGU1 180022Z 04008KT M01/M14 A3029 RMK A01 T10111138  RH  038%=      5-min Rain = 0
KGU1 180023Z 05008KT M01/M14 A3029 RMK A01 T10111137  RH  038%=      5-min Rain = 0
KGU1 180024Z 04008KT M01/M14 A3029 RMK A01 T10111138  RH  038%=      5-min Rain = 0
KGU1 180025Z 05007KT M01/M14 A3029 RMK A01 T10121137  RH  038%=      5-min Rain = 0
KGU1 180026Z 05007KT M01/M14 A3029 RMK A01 T10121139  RH  038%=      5-min Rain = 0
KGU1 180027Z 06005KT M01/M14 A3029 RMK A01 T10121137  RH  039%=      5-min Rain = 0
KGU1 180028Z 06005KT M01/M14 A3029 RMK A01 T10121137  RH  039%=      5-min Rain = 0
KGU1 180029Z 06006KT M01/M14 A3029 RMK A01 T10131137  RH  039%=      5-min Rain = 0
KGU1 180030Z 05008KT M01/M14 A3029 RMK A01 T10131139  RH  038%=      5-min Rain = 0
KGU1 180031Z 06007KT M01/M14 A3029 RMK A01 T10131139  RH  038%=      5-min Rain = 0
KGU1 180032Z 06007KT M01/M14 A3029 RMK A01 T10131140  RH  038%=      5-min Rain = 0
KGU1 180033Z 06008KT M01/M14 A3029 RMK A01 T10141141  RH  038%=      5-min Rain = 0
KGU1 180034Z 06005KT M01/M14 A3029 RMK A01 T10141142  RH  038%=      5-min Rain = 0
KGU1 180035Z 06007KT M01/M14 A3029 RMK A01 T10141143  RH  038%=      5-min Rain = 0
KGU1 180036Z 07008KT M02/M14 A3029 RMK A01 T10151144  RH  037%=      5-min Rain = 0
KGU1 180037Z 06005KT M02/M14 A3029 RMK A01 T10151143  RH  038%=      5-min Rain = 0
KGU1 180038Z 06006KT M02/M14 A3029 RMK A01 T10161143  RH  038%=      5-min Rain = 0
KGU1 180039Z 06008KT M02/M15 A3029 RMK A01 T10161145  RH  037%=      5-min Rain = 0
KGU1 180040Z 06008KT M02/M15 A3029 RMK A01 T10171145  RH  037%=      5-min Rain = 0
KGU1 180041Z 05008KT M02/M15 A3029 RMK A01 T10171146  RH  037%=      5-min Rain = 0
KGU1 180042Z 06008KT M02/M15 A3029 RMK A01 T10171146  RH  037%=      5-min Rain = 0
KGU1 180043Z 05008KT M02/M15 A3029 RMK A01 T10181147  RH  037%=      5-min Rain = 0
KGU1 180044Z 05007KT M02/M15 A3029 RMK A01 T10181146  RH  038%=      5-min Rain = 0
KGU1 180045Z 05007KT M02/M15 A3029 RMK A01 T10181146  RH  037%=      5-min Rain = 0
KGU1 180046Z 05009KT M02/M15 A3029 RMK A01 T10181147  RH  037%=      5-min Rain = 0
KGU1 180047Z 05009KT M02/M15 A3029 RMK A01 T10191148  RH  037%=      5-min Rain = 0
KGU1 180048Z 05008KT M02/M15 A3029 RMK A01 T10191147  RH  038%=      5-min Rain = 0
KGU1 180049Z 06007KT M02/M15 A3029 RMK A01 T10191148  RH  037%=      5-min Rain = 0
KGU1 180050Z 05006KT M02/M15 A3029 RMK A01 T10201147  RH  038%=      5-min Rain = 0
KGU1 180051Z 05007KT M02/M15 A3029 RMK A01 T10201148  RH  038%=      5-min Rain = 0
KGU1 180052Z 05006KT M02/M15 A3029 RMK A01 T10201147  RH  038%=      5-min Rain = 0
KGU1 180053Z 05007KT M02/M15 A3029 RMK A01 T10201147  RH  038%=      5-min Rain = 0
KGU1 180054Z 06008KT M02/M15 A3029 RMK A01 T10201149  RH  037%=      5-min Rain = 0
KGU1 180055Z 06008KT M02/M15 A3029 RMK A01 T10211150  RH  037%=      5-min Rain = 0
KGU1 180056Z 06008KT M02/M15 A3029 RMK A01 T10211150  RH  037%=      5-min Rain = 0
KGU1 180057Z 06005KT M02/M15 A3029 RMK A01 T10211150  RH  037%=      5-min Rain = 0
KGU1 180058Z 06005KT M02/M15 A303 RMK A01 T10211150  RH  037%=      5-min Rain = 0
KGU1 180059Z 06006KT M02/M15 A303 RMK A01 T10211150  RH  037%=      5-min Rain = 0
KGU1 180100Z 06006KT M02/M15 A303 RMK A01 T10211150  RH  037%=      5-min Rain = 0
KGU1 180101Z 06006KT M02/M15 A303 RMK A01 T10211150  RH  037%=      5-min Rain = 0
KGU1 180102Z 06006KT M02/M15 A303 RMK A01 T10211150  RH  037%=      5-min Rain = 0
KGU1 180103Z 05006KT M02/M15 A303 RMK A01 T10221150  RH  037%=      5-min Rain = 0
KGU1 180104Z 06006KT M02/M15 A303 RMK A01 T10221150  RH  037%=      5-min Rain = 0
KGU1 180105Z 06006KT M02/M15 A303 RMK A01 T10221150  RH  037%=      5-min Rain = 0
KGU1 180106Z 06006KT M02/M15 A303 RMK A01 T10221151  RH  037%=      5-min Rain = 0
KGU1 180107Z 06007KT M02/M15 A303 RMK A01 T10221151  RH  037%=      5-min Rain = 0
KGU1 180108Z 05006KT M02/M15 A303 RMK A01 T10221151  RH  037%=      5-min Rain = 0
KGU1 180109Z 05007KT M02/M15 A303 RMK A01 T10221152  RH  037%=      5-min Rain = 0
KGU1 180110Z 05006KT M02/M15 A303 RMK A01 T10221152  RH  037%=      5-min Rain = 0
KGU1 180111Z 05004KT M02/M15 A303 RMK A01 T10231150  RH  038%=      5-min Rain = 0
KGU1 180112Z 05005KT M02/M15 A303 RMK A01 T10231150  RH  038%=      5-min Rain = 0
KGU1 180113Z 05007KT M02/M15 A303 RMK A01 T10231152  RH  037%=      5-min Rain = 0
KGU1 180114Z 04005KT M02/M15 A303 RMK A01 T10231151  RH  037%=      5-min Rain = 0
KGU1 180115Z 04006KT M02/M15 A303 RMK A01 T10231151  RH  037%=      5-min Rain = 0
KGU1 180116Z 04005KT M02/M15 A303 RMK A01 T10231151  RH  038%=      5-min Rain = 0
KGU1 180117Z 05005KT M02/M15 A303 RMK A01 T10231150  RH  038%=      5-min Rain = 0
KGU1 180118Z 05005KT M02/M15 A303 RMK A01 T10231150  RH  038%=      5-min Rain = 0
KGU1 180119Z 05006KT M02/M15 A303 RMK A01 T10231151  RH  037%=      5-min Rain = 0
KGU1 180120Z 05005KT M02/M15 A303 RMK A01 T10231150  RH  038%=      5-min Rain = 0
KGU1 180121Z 06004KT M02/M15 A303 RMK A01 T10231150  RH  038%=      5-min Rain = 0
KGU1 180122Z 07005KT M02/M15 A303 RMK A01 T10241151  RH  038%=      5-min Rain = 0
KGU1 180123Z 07004KT M02/M15 A303 RMK A01 T10241151  RH  038%=      5-min Rain = 0
KGU1 180124Z 08005KT M02/M15 A303 RMK A01 T10241153  RH  037%=      5-min Rain = 0
KGU1 180125Z 08005KT M02/M15 A303 RMK A01 T10241154  RH  037%=      5-min Rain = 0
KGU1 180126Z 08004KT M03/M15 A303 RMK A01 T10251153  RH  037%=      5-min Rain = 0
KGU1 180127Z 08005KT M03/M15 A303 RMK A01 T10251153  RH  037%=      5-min Rain = 0
KGU1 180128Z 07005KT M03/M15 A303 RMK A01 T10251154  RH  037%=      5-min Rain = 0
KGU1 180129Z 07004KT M03/M16 A303 RMK A01 T10251155  RH  037%=      5-min Rain = 0
KGU1 180130Z 06003KT M03/M16 A303 RMK A01 T10261156  RH  037%=      5-min Rain = 0
KGU1 180131Z 06003KT M03/M16 A303 RMK A01 T10261156  RH  037%=      5-min Rain = 0
KGU1 180132Z 06003KT M03/M16 A303 RMK A01 T10261156  RH  037%=      5-min Rain = 0
KGU1 180133Z 07002KT M03/M16 A3031 RMK A01 T10261155  RH  037%=      5-min Rain = 0
KGU1 180134Z 08002KT M03/M16 A3031 RMK A01 T10261155  RH  037%=      5-min Rain = 0
KGU1 180135Z 07003KT M03/M16 A3031 RMK A01 T10261155  RH  037%=      5-min Rain = 0
KGU1 180136Z 06003KT M03/M16 A3031 RMK A01 T10261156  RH  037%=      5-min Rain = 0
KGU1 180137Z 06002KT M03/M16 A3031 RMK A01 T10261155  RH  037%=      5-min Rain = 0
KGU1 180138Z 05003KT M03/M16 A3031 RMK A01 T10261155  RH  037%=      5-min Rain = 0
KGU1 180139Z 05003KT M03/M16 A3031 RMK A01 T10261156  RH  037%=      5-min Rain = 0
KGU1 180140Z 05003KT M03/M16 A3031 RMK A01 T10261155  RH  037%=      5-min Rain = 0
KGU1 180141Z 05002KT M03/M15 A3031 RMK A01 T10271154  RH  037%=      5-min Rain = 0
KGU1 180142Z 04003KT M03/M16 A3031 RMK A01 T10261155  RH  037%=      5-min Rain = 0
KGU1 180143Z 03003KT M03/M16 A3031 RMK A01 T10261155  RH  037%=      5-min Rain = 0
KGU1 180144Z 03004KT M03/M16 A3031 RMK A01 T10261155  RH  037%=      5-min Rain = 0
KGU1 180145Z 03003KT M03/M15 A303 RMK A01 T10261154  RH  038%=      5-min Rain = 0
KGU1 180146Z 03003KT M03/M15 A303 RMK A01 T10261154  RH  037%=      5-min Rain = 0
KGU1 180147Z 02003KT M03/M15 A303 RMK A01 T10261154  RH  037%=      5-min Rain = 0
KGU1 180148Z 02002KT M03/M15 A303 RMK A01 T10261154  RH  037%=      5-min Rain = 0
KGU1 180149Z 01002KT M03/M15 A303 RMK A01 T10271154  RH  038%=      5-min Rain = 0
KGU1 180150Z 01002KT M03/M15 A303 RMK A01 T10271152  RH  038%=      5-min Rain = 0
KGU1 180151Z 36003KT M03/M15 A303 RMK A01 T10271153  RH  038%=      5-min Rain = 0
KGU1 180152Z 36003KT M03/M15 A303 RMK A01 T10271153  RH  038%=      5-min Rain = 0
KGU1 180153Z 00003KT M03/M15 A303 RMK A01 T10271154  RH  038%=      5-min Rain = 0
KGU1 180154Z 01003KT M03/M15 A303 RMK A01 T10271152  RH  038%=      5-min Rain = 0
KGU1 180155Z 01004KT M03/M15 A303 RMK A01 T10271152  RH  038%=      5-min Rain = 0
KGU1 180156Z 01004KT M03/M15 A303 RMK A01 T10281152  RH  038%=      5-min Rain = 0
KGU1 180157Z 00004KT M03/M15 A303 RMK A01 T10281152  RH  039%=      5-min Rain = 0
KGU1 180158Z 00004KT M03/M15 A303 RMK A01 T10281152  RH  038%=      5-min Rain = 0
KGU1 180159Z 01004KT M03/M15 A303 RMK A01 T10281153  RH  038%=      5-min Rain = 0
KGU1 180200Z 01002KT M03/M15 A303 RMK A01 T10281153  RH  038%=      5-min Rain = 0
KGU1 180201Z 01001KT M03/M15 A303 RMK A01 T10281152  RH  039%=      5-min Rain = 0
KGU1 180202Z 01001KT M03/M15 A303 RMK A01 T10291151  RH  039%=      5-min Rain = 0
KGU1 180203Z 01000KT M03/M15 A303 RMK A01 T10291152  RH  039%=      5-min Rain = 0
KGU1 180204Z 00000KT M03/M15 A303 RMK A01 T10291152  RH  039%=      5-min Rain = 0
KGU1 180205Z 00000KT M03/M15 A303 RMK A01 T10291152  RH  039%=      5-min Rain = 0
KGU1 180206Z 00000KT M03/M15 A303 RMK A01 T10291153  RH  039%=      5-min Rain = 0
KGU1 180207Z 00000KT M03/M15 A303 RMK A01 T10291154  RH  038%=      5-min Rain = 0
KGU1 180208Z 00000KT M03/M16 A303 RMK A01 T10291155  RH  038%=      5-min Rain = 0
KGU1 180209Z 00000KT M03/M16 A303 RMK A01 T10291155  RH  038%=      5-min Rain = 0
KGU1 180210Z 00000KT M03/M16 A303 RMK A01 T10291156  RH  038%=      5-min Rain = 0
KGU1 180211Z 02000KT M03/M16 A303 RMK A01 T10291157  RH  037%=      5-min Rain = 0
KGU1 180212Z 02001KT M03/M16 A303 RMK A01 T10291158  RH  037%=      5-min Rain = 0
KGU1 180213Z 02002KT M03/M16 A303 RMK A01 T10281157  RH  037%=      5-min Rain = 0
KGU1 180214Z 02002KT M03/M16 A303 RMK A01 T10281157  RH  037%=      5-min Rain = 0
KGU1 180215Z 02001KT M03/M16 A303 RMK A01 T10281155  RH  038%=      5-min Rain = 0
KGU1 180216Z 02001KT M03/M16 A303 RMK A01 T10291155  RH  038%=      5-min Rain = 0
KGU1 180217Z 02001KT M03/M16 A303 RMK A01 T10291155  RH  038%=      5-min Rain = 0
KGU1 180218Z 02001KT M03/M16 A303 RMK A01 T10291155  RH  038%=      5-min Rain = 0
KGU1 180219Z 02001KT M03/M15 A303 RMK A01 T10291154  RH  038%=      5-min Rain = 0
KGU1 180220Z 02001KT M03/M16 A303 RMK A01 T10291155  RH  038%=      5-min Rain = 0
KGU1 180221Z 02000KT M03/M16 A303 RMK A01 T10301155  RH  038%=      5-min Rain = 0
KGU1 180222Z 35000KT M03/M15 A303 RMK A01 T10301154  RH  038%=      5-min Rain = 0
KGU1 180223Z 35000KT M03/M15 A303 RMK A01 T10301153  RH  039%=      5-min Rain = 0
KGU1 180224Z 35000KT M03/M15 A303 RMK A01 T10301150  RH  040%=      5-min Rain = 0
KGU1 180225Z 33002KT M03/M15 A303 RMK A01 T10311148  RH  041%=      5-min Rain = 0
KGU1 180226Z 33002KT M03/M15 A303 RMK A01 T10321146  RH  042%=      5-min Rain = 0
KGU1 180227Z 30003KT M03/M15 A303 RMK A01 T10331146  RH  042%=      5-min Rain = 0
KGU1 180228Z 29002KT M03/M15 A303 RMK A01 T10341147  RH  042%=      5-min Rain = 0
KGU1 180229Z 28003KT M03/M15 A303 RMK A01 T10341146  RH  042%=      5-min Rain = 0
KGU1 180230Z 27003KT M04/M15 A303 RMK A01 T10351146  RH  042%=      5-min Rain = 0
KGU1 180231Z 27003KT M04/M15 A303 RMK A01 T10351146  RH  043%=      5-min Rain = 0
KGU1 180232Z 27003KT M04/M15 A303 RMK A01 T10351146  RH  043%=      5-min Rain = 0
KGU1 180233Z 27003KT M04/M15 A303 RMK A01 T10361145  RH  043%=      5-min Rain = 0
KGU1 180234Z 27003KT M04/M15 A303 RMK A01 T10361145  RH  043%=      5-min Rain = 0
KGU1 180235Z 27003KT M04/M15 A303 RMK A01 T10361145  RH  043%=      5-min Rain = 0
KGU1 180236Z 27002KT M04/M15 A303 RMK A01 T10361145  RH  043%=      5-min Rain = 0
KGU1 180237Z 27002KT M04/M15 A303 RMK A01 T10361147  RH  043%=      5-min Rain = 0
KGU1 180238Z 27002KT M04/M15 A303 RMK A01 T10351146  RH  043%=      5-min Rain = 0
KGU1 180239Z 27003KT M04/M15 A303 RMK A01 T10351146  RH  042%=      5-min Rain = 0
KGU1 180240Z 28003KT M03/M15 A303 RMK A01 T10341148  RH  042%=      5-min Rain = 0
KGU1 180241Z 28003KT M03/M15 A303 RMK A01 T10331149  RH  041%=      5-min Rain = 0
KGU1 180242Z 28003KT M03/M15 A303 RMK A01 T10331149  RH  041%=      5-min Rain = 0
KGU1 180243Z 28002KT M03/M15 A303 RMK A01 T10331148  RH  041%=      5-min Rain = 0
KGU1 180244Z 13001KT M03/M15 A303 RMK A01 T10331145  RH  042%=      5-min Rain = 0
KGU1 180245Z 13003KT M04/M14 A303 RMK A01 T10351143  RH  044%=      5-min Rain = 0
KGU1 180246Z 15003KT M04/M15 A303 RMK A01 T10361145  RH  043%=      5-min Rain = 0
KGU1 180247Z 15002KT M04/M15 A303 RMK A01 T10361147  RH  042%=      5-min Rain = 0
KGU1 180248Z 15002KT M04/M15 A303 RMK A01 T10351145  RH  043%=      5-min Rain = 0
KGU1 180249Z 15002KT M04/M14 A303 RMK A01 T10351144  RH  043%=      5-min Rain = 0
KGU1 180250Z 15002KT M03/M15 A303 RMK A01 T10341147  RH  042%=      5-min Rain = 0
KGU1 180251Z 14002KT M03/M15 A303 RMK A01 T10331147  RH  042%=      5-min Rain = 0
KGU1 180252Z 14002KT M03/M15 A303 RMK A01 T10321146  RH  042%=      5-min Rain = 0
KGU1 180253Z 14001KT M03/M15 A303 RMK A01 T10321146  RH  042%=      5-min Rain = 0
KGU1 180254Z 14001KT M03/M15 A303 RMK A01 T10331147  RH  041%=      5-min Rain = 0
KGU1 180255Z 14000KT M03/M15 A303 RMK A01 T10331147  RH  041%=      5-min Rain = 0
KGU1 180256Z 00000KT M03/M15 A303 RMK A01 T10331147  RH  042%=      5-min Rain = 0
KGU1 180257Z 00000KT M03/M15 A303 RMK A01 T10331147  RH  042%=      5-min Rain = 0
KGU1 180258Z 00000KT M03/M15 A3031 RMK A01 T10341148  RH  042%=      5-min Rain = 0
KGU1 180259Z 00000KT M03/M15 A3031 RMK A01 T10341148  RH  042%=      5-min Rain = 0
KGU1 180300Z 00000KT M04/M15 A3031 RMK A01 T10351146  RH  042%=      5-min Rain = 0
KGU1 180301Z 14000KT M04/M15 A3031 RMK A01 T10351146  RH  042%=      5-min Rain = 0
KGU1 180302Z 14000KT M04/M15 A3031 RMK A01 T10351146  RH  042%=      5-min Rain = 0
KGU1 180303Z 00000KT M04/M15 A3031 RMK A01 T10351147  RH  042%=      5-min Rain = 0
KGU1 180304Z 00000KT M04/M15 A3031 RMK A01 T10351147  RH  042%=      5-min Rain = 0
KGU1 180305Z 00000KT M04/M15 A3031 RMK A01 T10351147  RH  042%=      5-min Rain = 0
KGU1 180306Z 00000KT M04/M15 A3031 RMK A01 T10351145  RH  043%=      5-min Rain = 0
KGU1 180307Z 00000KT M04/M14 A3031 RMK A01 T10351144  RH  043%=      5-min Rain = 0
KGU1 180308Z 00000KT M04/M14 A3031 RMK A01 T10351141  RH  044%=      5-min Rain = 0
KGU1 180309Z 17000KT M04/M14 A3031 RMK A01 T10361141  RH  045%=      5-min Rain = 0
KGU1 180310Z 17000KT M04/M14 A3031 RMK A01 T10361141  RH  045%=      5-min Rain = 0
KGU1 180311Z 17000KT M04/M14 A3031 RMK A01 T10361142  RH  045%=      5-min Rain = 0
KGU1 180312Z 17000KT M04/M14 A3031 RMK A01 T10361144  RH  044%=      5-min Rain = 0
KGU1 180313Z 00000KT M04/M15 A3031 RMK A01 T10351145  RH  043%=      5-min Rain = 0
KGU1 180314Z 17000KT M04/M15 A3031 RMK A01 T10351146  RH  043%=      5-min Rain = 0
KGU1 180315Z 17001KT M04/M14 A3031 RMK A01 T10351142  RH  044%=      5-min Rain = 0
KGU1 180316Z 17001KT M04/M14 A3031 RMK A01 T10351139  RH  045%=      5-min Rain = 0
KGU1 180317Z 17001KT M04/M14 A3031 RMK A01 T10361138  RH  046%=      5-min Rain = 0
KGU1 180318Z 17000KT M04/M14 A3031 RMK A01 T10361137  RH  046%=      5-min Rain = 0
KGU1 180319Z 00000KT M04/M14 A3031 RMK A01 T10371135  RH  047%=      5-min Rain = 0
KGU1 180320Z 00000KT M04/M14 A3031 RMK A01 T10381135  RH  047%=      5-min Rain = 0
KGU1 180321Z 00000KT M04/M14 A3031 RMK A01 T10381136  RH  047%=      5-min Rain = 0
KGU1 180322Z 00000KT M04/M14 A3031 RMK A01 T10381139  RH  046%=      5-min Rain = 0
KGU1 180323Z 00000KT M04/M14 A3031 RMK A01 T10371140  RH  046%=      5-min Rain = 0
KGU1 180324Z 00000KT M04/M14 A3031 RMK A01 T10371142  RH  045%=      5-min Rain = 0
KGU1 180325Z 00000KT M04/M14 A3031 RMK A01 T10371141  RH  045%=      5-min Rain = 0
KGU1 180326Z 00000KT M04/M15 A3031 RMK A01 T10371145  RH  043%=      5-min Rain = 0
KGU1 180327Z 00000KT M04/M15 A3031 RMK A01 T10371145  RH  043%=      5-min Rain = 0
KGU1 180328Z 17000KT M04/M14 A3031 RMK A01 T10361138  RH  046%=      5-min Rain = 0
KGU1 180329Z 17001KT M04/M14 A3031 RMK A01 T10381138  RH  046%=      5-min Rain = 0
KGU1 180330Z 17001KT M04/M14 A3031 RMK A01 T10381137  RH  047%=      5-min Rain = 0
KGU1 180331Z 17000KT M04/M14 A3031 RMK A01 T10381135  RH  048%=      5-min Rain = 0
KGU1 180332Z 17000KT M04/M13 A3031 RMK A01 T10391133  RH  048%=      5-min Rain = 0
KGU1 180333Z 17001KT M04/M13 A3031 RMK A01 T10391132  RH  049%=      5-min Rain = 0
KGU1 180334Z 17001KT M04/M13 A3031 RMK A01 T10401132  RH  050%=      5-min Rain = 0
KGU1 180335Z 17001KT M04/M13 A3031 RMK A01 T10411133  RH  049%=      5-min Rain = 0
KGU1 180336Z 17001KT M04/M14 A3031 RMK A01 T10411135  RH  049%=      5-min Rain = 0
KGU1 180337Z 17000KT M04/M14 A3031 RMK A01 T10411138  RH  048%=      5-min Rain = 0
KGU1 180338Z 17000KT M04/M14 A3031 RMK A01 T10411139  RH  047%=      5-min Rain = 0
KGU1 180339Z 17000KT M04/M14 A3031 RMK A01 T10411141  RH  047%=      5-min Rain = 0
KGU1 180340Z 17000KT M04/M14 A3031 RMK A01 T10411141  RH  046%=      5-min Rain = 0
KGU1 180341Z 17001KT M04/M14 A3031 RMK A01 T10401142  RH  046%=      5-min Rain = 0
KGU1 180342Z 17000KT M04/M14 A3031 RMK A01 T10401141  RH  046%=      5-min Rain = 0
KGU1 180343Z 00000KT M04/M14 A3031 RMK A01 T10401139  RH  047%=      5-min Rain = 0
KGU1 180344Z 00000KT M04/M14 A3031 RMK A01 T10411138  RH  047%=      5-min Rain = 0
KGU1 180345Z 00000KT M04/M14 A3031 RMK A01 T10411138  RH  047%=      5-min Rain = 0
KGU1 180346Z 00000KT M04/M14 A3031 RMK A01 T10411140  RH  047%=      5-min Rain = 0
KGU1 180347Z 00000KT M04/M14 A3031 RMK A01 T10411140  RH  047%=      5-min Rain = 0
KGU1 180348Z 00000KT M04/M14 A3031 RMK A01 T10411138  RH  048%=      5-min Rain = 0
KGU1 180349Z 00000KT M04/M14 A3031 RMK A01 T10421137  RH  048%=      5-min Rain = 0
KGU1 180350Z 00000KT M04/M14 A3031 RMK A01 T10431137  RH  049%=      5-min Rain = 0
KGU1 180351Z 00000KT M04/M14 A3031 RMK A01 T10431138  RH  048%=      5-min Rain = 0
KGU1 180352Z 00000KT M04/M14 A3031 RMK A01 T10431139  RH  048%=      5-min Rain = 0
KGU1 180353Z 17000KT M04/M14 A3031 RMK A01 T10441139  RH  048%=      5-min Rain = 0
KGU1 180354Z 17001KT M04/M14 A3031 RMK A01 T10441136  RH  049%=      5-min Rain = 0
KGU1 180355Z 17001KT M05/M14 A3031 RMK A01 T10451135  RH  050%=      5-min Rain = 0
KGU1 180356Z 17001KT M05/M13 A3031 RMK A01 T10471134  RH  051%=      5-min Rain = 0
KGU1 180357Z 17001KT M05/M13 A3031 RMK A01 T10491133  RH  053%=      5-min Rain = 0
KGU1 180358Z 17001KT M05/M13 A3031 RMK A01 T10501133  RH  053%=      5-min Rain = 0
KGU1 180359Z 17001KT M05/M13 A3031 RMK A01 T10501134  RH  053%=      5-min Rain = 0
KGU1 180400Z 17001KT M05/M13 A3031 RMK A01 T10501133  RH  053%=      5-min Rain = 0
KGU1 180401Z 17001KT M05/M13 A3031 RMK A01 T10491133  RH  053%=      5-min Rain = 0
KGU1 180402Z 17001KT M05/M13 A3031 RMK A01 T10491133  RH  053%=      5-min Rain = 0
KGU1 180403Z 17000KT M05/M13 A3031 RMK A01 T10491134  RH  052%=      5-min Rain = 0
KGU1 180404Z 17000KT M05/M14 A3031 RMK A01 T10481137  RH  051%=      5-min Rain = 0
KGU1 180405Z 17000KT M05/M14 A3031 RMK A01 T10481137  RH  050%=      5-min Rain = 0
KGU1 180406Z 17000KT M05/M14 A3031 RMK A01 T10471139  RH  049%=      5-min Rain = 0
KGU1 180407Z 17001KT M05/M14 A3031 RMK A01 T10461140  RH  049%=      5-min Rain = 0
KGU1 180408Z 17000KT M05/M14 A3031 RMK A01 T10461140  RH  048%=      5-min Rain = 0
KGU1 180409Z 17000KT M05/M14 A3031 RMK A01 T10451141  RH  048%=      5-min Rain = 0
KGU1 180410Z 09000KT M05/M14 A3031 RMK A01 T10451142  RH  048%=      5-min Rain = 0
KGU1 180411Z 06001KT M05/M14 A3031 RMK A01 T10451143  RH  047%=      5-min Rain = 0
KGU1 180412Z 04002KT M05/M14 A3031 RMK A01 T10451142  RH  047%=      5-min Rain = 0
KGU1 180413Z 04002KT M05/M14 A3031 RMK A01 T10451143  RH  047%=      5-min Rain = 0
KGU1 180414Z 04001KT M05/M14 A3031 RMK A01 T10461144  RH  047%=      5-min Rain = 0
KGU1 180415Z 04002KT M05/M15 A3031 RMK A01 T10461145  RH  047%=      5-min Rain = 0
KGU1 180416Z 04002KT M05/M15 A3031 RMK A01 T10461145  RH  047%=      5-min Rain = 0
KGU1 180417Z 04002KT M05/M15 A3031 RMK A01 T10461146  RH  046%=      5-min Rain = 0
KGU1 180418Z 04002KT M05/M15 A3031 RMK A01 T10461147  RH  046%=      5-min Rain = 0
KGU1 180419Z 04001KT M05/M15 A3031 RMK A01 T10471147  RH  046%=      5-min Rain = 0
KGU1 180420Z 04001KT M05/M15 A3031 RMK A01 T10471147  RH  046%=      5-min Rain = 0
KGU1 180421Z 04002KT M05/M15 A3031 RMK A01 T10471148  RH  046%=      5-min Rain = 0
KGU1 180422Z 04002KT M05/M15 A3031 RMK A01 T10471148  RH  046%=      5-min Rain = 0
KGU1 180423Z 04001KT M05/M15 A3031 RMK A01 T10471148  RH  046%=      5-min Rain = 0
KGU1 180424Z 04001KT M05/M15 A3031 RMK A01 T10471149  RH  046%=      5-min Rain = 0
KGU1 180425Z 04001KT M05/M15 A3031 RMK A01 T10471149  RH  045%=      5-min Rain = 0
KGU1 180426Z 04001KT M05/M15 A3031 RMK A01 T10471149  RH  045%=      5-min Rain = 0
KGU1 180427Z 04001KT M05/M15 A3031 RMK A01 T10481150  RH  045%=      5-min Rain = 0
KGU1 180428Z 04001KT M05/M15 A3031 RMK A01 T10471150  RH  045%=      5-min Rain = 0
KGU1 180429Z 04001KT M05/M15 A3031 RMK A01 T10471149  RH  045%=      5-min Rain = 0
KGU1 180430Z 04001KT M05/M15 A3031 RMK A01 T10461149  RH  045%=      5-min Rain = 0
KGU1 180431Z 04002KT M05/M15 A3031 RMK A01 T10461150  RH  045%=      5-min Rain = 0
KGU1 180432Z 04001KT M05/M15 A3031 RMK A01 T10451149  RH  045%=      5-min Rain = 0
KGU1 180433Z 04000KT M05/M15 A3031 RMK A01 T10451149  RH  045%=      5-min Rain = 0
KGU1 180434Z 00000KT M05/M15 A3031 RMK A01 T10451148  RH  045%=      5-min Rain = 0
KGU1 180435Z 00000KT M05/M15 A3031 RMK A01 T10461147  RH  046%=      5-min Rain = 0
KGU1 180436Z 00000KT M05/M15 A3031 RMK A01 T10461145  RH  047%=      5-min Rain = 0
KGU1 180437Z 35001KT M05/M14 A3031 RMK A01 T10471143  RH  048%=      5-min Rain = 0
KGU1 180438Z 34002KT M05/M14 A3031 RMK A01 T10481142  RH  048%=      5-min Rain = 0
KGU1 180439Z 34002KT M05/M14 A3031 RMK A01 T10491141  RH  049%=      5-min Rain = 0
KGU1 180440Z 34002KT M05/M14 A3031 RMK A01 T10501140  RH  050%=      5-min Rain = 0
KGU1 180441Z 34002KT M05/M14 A3031 RMK A01 T10511138  RH  051%=      5-min Rain = 0
KGU1 180442Z 34002KT M05/M14 A3031 RMK A01 T10521138  RH  052%=      5-min Rain = 0
KGU1 180443Z 34002KT M05/M14 A3031 RMK A01 T10531138  RH  052%=      5-min Rain = 0
KGU1 180444Z 34002KT M05/M14 A3031 RMK A01 T10531137  RH  052%=      5-min Rain = 0
KGU1 180445Z 34001KT M05/M14 A3031 RMK A01 T10541136  RH  053%=      5-min Rain = 0
KGU1 180446Z 34002KT M05/M14 A3031 RMK A01 T10541137  RH  053%=      5-min Rain = 0
KGU1 180447Z 32002KT M06/M14 A3031 RMK A01 T10551137  RH  053%=      5-min Rain = 0
KGU1 180448Z 32001KT M06/M14 A3031 RMK A01 T10561137  RH  053%=      5-min Rain = 0
KGU1 180449Z 32001KT M06/M14 A3031 RMK A01 T10561137  RH  054%=      5-min Rain = 0
KGU1 180450Z 32001KT M06/M14 A3031 RMK A01 T10561137  RH  053%=      5-min Rain = 0
KGU1 180451Z 32001KT M06/M14 A3031 RMK A01 T10561138  RH  053%=      5-min Rain = 0
KGU1 180452Z 32001KT M06/M14 A3031 RMK A01 T10551139  RH  052%=      5-min Rain = 0
KGU1 180453Z 32001KT M05/M14 A3031 RMK A01 T10541140  RH  052%=      5-min Rain = 0
KGU1 180454Z 32001KT M05/M14 A3031 RMK A01 T10541139  RH  052%=      5-min Rain = 0
KGU1 180455Z 32001KT M06/M14 A3031 RMK A01 T10551137  RH  053%=      5-min Rain = 0
KGU1 180456Z 32001KT M06/M14 A3031 RMK A01 T10561138  RH  053%=      5-min Rain = 0
KGU1 180457Z 32001KT M06/M14 A3031 RMK A01 T10561139  RH  053%=      5-min Rain = 0
KGU1 180458Z 32001KT M06/M14 A3031 RMK A01 T10551140  RH  052%=      5-min Rain = 0
KGU1 180459Z 32001KT M06/M14 A3031 RMK A01 T10551139  RH  052%=      5-min Rain = 0
KGU1 180500Z 32001KT M05/M14 A3031 RMK A01 T10541139  RH  052%=      5-min Rain = 0
KGU1 180501Z 32001KT M05/M14 A3031 RMK A01 T10541139  RH  052%=      5-min Rain = 0
KGU1 180502Z 32001KT M05/M14 A3031 RMK A01 T10541137  RH  053%=      5-min Rain = 0
KGU1 180503Z 32001KT M05/M14 A3031 RMK A01 T10541136  RH  053%=      5-min Rain = 0
KGU1 180504Z 32000KT M06/M14 A3031 RMK A01 T10551135  RH  054%=      5-min Rain = 0
KGU1 180505Z 32000KT M05/M14 A3031 RMK A01 T10541136  RH  053%=      5-min Rain = 0
KGU1 180506Z 32000KT M05/M14 A3031 RMK A01 T10531137  RH  052%=      5-min Rain = 0
KGU1 180507Z 32000KT M05/M14 A3031 RMK A01 T10521137  RH  052%=      5-min Rain = 0
KGU1 180508Z 32001KT M05/M14 A3031 RMK A01 T10511137  RH  052%=      5-min Rain = 0
KGU1 180509Z 34001KT M05/M14 A3031 RMK A01 T10501137  RH  051%=      5-min Rain = 0
KGU1 180510Z 34001KT M05/M14 A3031 RMK A01 T10501136  RH  052%=      5-min Rain = 0
KGU1 180511Z 34001KT M05/M14 A3031 RMK A01 T10501136  RH  052%=      5-min Rain = 0
KGU1 180512Z 34001KT M05/M14 A3031 RMK A01 T10501136  RH  052%=      5-min Rain = 0
KGU1 180513Z 34001KT M05/M14 A3031 RMK A01 T10501137  RH  051%=      5-min Rain = 0
KGU1 180514Z 34001KT M05/M14 A3031 RMK A01 T10511136  RH  052%=      5-min Rain = 0
KGU1 180515Z 34001KT M05/M14 A3031 RMK A01 T10521136  RH  053%=      5-min Rain = 0
KGU1 180516Z 34001KT M05/M14 A3031 RMK A01 T10521135  RH  053%=      5-min Rain = 0
KGU1 180517Z 34001KT M05/M13 A3031 RMK A01 T10521134  RH  053%=      5-min Rain = 0
KGU1 180518Z 33001KT M05/M13 A3031 RMK A01 T10531134  RH  054%=      5-min Rain = 0
KGU1 180519Z 33001KT M05/M13 A3031 RMK A01 T10541134  RH  054%=      5-min Rain = 0
KGU1 180520Z 33001KT M05/M14 A3031 RMK A01 T10541135  RH  054%=      5-min Rain = 0
KGU1 180521Z 33001KT M05/M13 A3031 RMK A01 T10541134  RH  054%=      5-min Rain = 0
KGU1 180522Z 33001KT M05/M14 A3031 RMK A01 T10541135  RH  054%=      5-min Rain = 0
KGU1 180523Z 33001KT M05/M14 A3031 RMK A01 T10541135  RH  054%=      5-min Rain = 0
KGU1 180524Z 32002KT M06/M14 A3031 RMK A01 T10551135  RH  054%=      5-min Rain = 0
KGU1 180525Z 32001KT M06/M14 A3031 RMK A01 T10551135  RH  054%=      5-min Rain = 0
KGU1 180526Z 32001KT M06/M14 A3031 RMK A01 T10561135  RH  055%=      5-min Rain = 0
KGU1 180527Z 32001KT M06/M14 A3031 RMK A01 T10561135  RH  055%=      5-min Rain = 0
KGU1 180528Z 32001KT M06/M14 A3031 RMK A01 T10571137  RH  054%=      5-min Rain = 0
KGU1 180529Z 32001KT M06/M14 A3031 RMK A01 T10561137  RH  054%=      5-min Rain = 0
KGU1 180530Z 31001KT M06/M14 A3031 RMK A01 T10561137  RH  054%=      5-min Rain = 0
KGU1 180531Z 28003KT M06/M14 A3031 RMK A01 T10571137  RH  054%=      5-min Rain = 0
KGU1 180532Z 27003KT M06/M14 A3031 RMK A01 T10571137  RH  054%=      5-min Rain = 0
KGU1 180533Z 27003KT M06/M14 A3031 RMK A01 T10581136  RH  055%=      5-min Rain = 0
KGU1 180534Z 27003KT M06/M14 A3031 RMK A01 T10581136  RH  055%=      5-min Rain = 0
KGU1 180535Z 27003KT M06/M13 A3031 RMK A01 T10571134  RH  055%=      5-min Rain = 0
KGU1 180536Z 27004KT M06/M13 A3031 RMK A01 T10581131  RH  058%=      5-min Rain = 0
KGU1 180537Z 28004KT M06/M13 A3031 RMK A01 T10591129  RH  059%=      5-min Rain = 0
KGU1 180538Z 28004KT M06/M13 A3031 RMK A01 T10601129  RH  059%=      5-min Rain = 0
KGU1 180539Z 28005KT M06/M13 A3031 RMK A01 T10601129  RH  059%=      5-min Rain = 0
KGU1 180540Z 28005KT M06/M13 A3031 RMK A01 T10601128  RH  060%=      5-min Rain = 0
KGU1 180541Z 28005KT M06/M13 A3031 RMK A01 T10601126  RH  060%=      5-min Rain = 0
KGU1 180542Z 28005KT M06/M13 A3031 RMK A01 T10601126  RH  060%=      5-min Rain = 0
KGU1 180543Z 28005KT M06/M12 A3031 RMK A01 T10591124  RH  061%=      5-min Rain = 0
KGU1 180544Z 29005KT M06/M12 A3031 RMK A01 T10601121  RH  063%=      5-min Rain = 0
KGU1 180545Z 29005KT M06/M12 A3031 RMK A01 T10591120  RH  063%=      5-min Rain = 0
KGU1 180546Z 29005KT M06/M12 A3031 RMK A01 T10591120  RH  063%=      5-min Rain = 0
KGU1 180547Z 29005KT M06/M12 A3031 RMK A01 T10591118  RH  064%=      5-min Rain = 0
KGU1 180548Z 29005KT M06/M12 A3031 RMK A01 T10591116  RH  065%=      5-min Rain = 0
KGU1 180549Z 29005KT M06/M11 A3031 RMK A01 T10581114  RH  066%=      5-min Rain = 0
KGU1 180550Z 30005KT M06/M11 A3031 RMK A01 T10581113  RH  066%=      5-min Rain = 0
KGU1 180551Z 30004KT M06/M11 A3031 RMK A01 T10581113  RH  066%=      5-min Rain = 0
KGU1 180552Z 29004KT M06/M11 A3031 RMK A01 T10571113  RH  066%=      5-min Rain = 0
KGU1 180553Z 29004KT M06/M11 A3031 RMK A01 T10571113  RH  066%=      5-min Rain = 0
KGU1 180554Z 29004KT M06/M11 A3031 RMK A01 T10571112  RH  066%=      5-min Rain = 0
KGU1 180555Z 29004KT M06/M11 A3031 RMK A01 T10561111  RH  066%=      5-min Rain = 0
KGU1 180556Z 29003KT M06/M11 A3031 RMK A01 T10551110  RH  066%=      5-min Rain = 0
KGU1 180557Z 29004KT M05/M11 A3031 RMK A01 T10531109  RH  066%=      5-min Rain = 0
KGU1 180558Z 29004KT M05/M11 A3031 RMK A01 T10521107  RH  066%=      5-min Rain = 0
KGU1 180559Z 28004KT M05/M11 A3031 RMK A01 T10501107  RH  065%=      5-min Rain = 0

Page generated in 0.075 seconds.